﻿<?xml version="1.0" encoding="UTF-8" standalone="no"?>
<gpx xmlns="http://www.topografix.com/GPX/1/1" xmlns:gpxtpx="http://www.garmin.com/xmlschemas/TrackPointExtension/v1" xmlns:xsi="http://www.w3.org/2001/XMLSchema-instance" creator="Hribi.net" version="1.1" xsi:schemaLocation="http://www.topografix.com/GPX/1/1 http://www.topografix.com/GPX/1/1/gpx.xsd http://www.garmin.com/xmlschemas/TrackPointExtension/v1 http://www.garmin.com/xmlschemas/TrackPointExtensionv1.xsd">
  <metadata>
    <name>GPS sled</name>
    <desc>www.hribi.net</desc>
    <author>
      <name>hribi.net</name>
    </author>
    <link href="http://www.hribi.net">
      <text>Hribi.net</text>
    </link>
  </metadata>
  <trk>
    <trkseg>
      <trkpt lat="45.285400" lon="14.202010">
        <ele>1427.988</ele>
        <time>2012-05-01T06:06:00Z</time>
      </trkpt>
      <trkpt lat="45.285450" lon="14.202010">
        <ele>1431.036</ele>
        <time>2012-05-01T06:06:12Z</time>
      </trkpt>
      <trkpt lat="45.285500" lon="14.202040">
        <ele>1431.9504</ele>
        <time>2012-05-01T06:06:16Z</time>
      </trkpt>
      <trkpt lat="45.285560" lon="14.202040">
        <ele>1432.56</ele>
        <time>2012-05-01T06:06:23Z</time>
      </trkpt>
      <trkpt lat="45.285600" lon="14.202080">
        <ele>1434.9984</ele>
        <time>2012-05-01T06:06:27Z</time>
      </trkpt>
      <trkpt lat="45.285650" lon="14.202080">
        <ele>1435.9128</ele>
        <time>2012-05-01T06:06:31Z</time>
      </trkpt>
      <trkpt lat="45.285700" lon="14.202110">
        <ele>1435.3032</ele>
        <time>2012-05-01T06:06:35Z</time>
      </trkpt>
      <trkpt lat="45.285740" lon="14.202110">
        <ele>1436.5224</ele>
        <time>2012-05-01T06:06:39Z</time>
      </trkpt>
      <trkpt lat="45.285790" lon="14.202130">
        <ele>1434.9984</ele>
        <time>2012-05-01T06:06:43Z</time>
      </trkpt>
      <trkpt lat="45.285850" lon="14.202140">
        <ele>1434.9984</ele>
        <time>2012-05-01T06:06:49Z</time>
      </trkpt>
      <trkpt lat="45.285890" lon="14.202170">
        <ele>1433.4744</ele>
        <time>2012-05-01T06:06:53Z</time>
      </trkpt>
      <trkpt lat="45.285940" lon="14.202180">
        <ele>1430.4264</ele>
        <time>2012-05-01T06:06:58Z</time>
      </trkpt>
      <trkpt lat="45.286000" lon="14.202210">
        <ele>1430.7312</ele>
        <time>2012-05-01T06:07:02Z</time>
      </trkpt>
      <trkpt lat="45.286040" lon="14.202210">
        <ele>1430.1216</ele>
        <time>2012-05-01T06:07:06Z</time>
      </trkpt>
      <trkpt lat="45.286090" lon="14.202200">
        <ele>1430.4264</ele>
        <time>2012-05-01T06:07:17Z</time>
      </trkpt>
      <trkpt lat="45.286130" lon="14.202240">
        <ele>1431.6456</ele>
        <time>2012-05-01T06:07:25Z</time>
      </trkpt>
      <trkpt lat="45.286180" lon="14.202260">
        <ele>1431.9504</ele>
        <time>2012-05-01T06:07:32Z</time>
      </trkpt>
      <trkpt lat="45.286210" lon="14.202310">
        <ele>1432.2552</ele>
        <time>2012-05-01T06:07:36Z</time>
      </trkpt>
      <trkpt lat="45.286240" lon="14.202360">
        <ele>1431.9504</ele>
        <time>2012-05-01T06:07:40Z</time>
      </trkpt>
      <trkpt lat="45.286290" lon="14.202380">
        <ele>1433.1696</ele>
        <time>2012-05-01T06:07:44Z</time>
      </trkpt>
      <trkpt lat="45.286320" lon="14.202440">
        <ele>1432.56</ele>
        <time>2012-05-01T06:07:51Z</time>
      </trkpt>
      <trkpt lat="45.286350" lon="14.202500">
        <ele>1429.2072</ele>
        <time>2012-05-01T06:07:55Z</time>
      </trkpt>
      <trkpt lat="45.286340" lon="14.202580">
        <ele>1428.9024</ele>
        <time>2012-05-01T06:08:00Z</time>
      </trkpt>
      <trkpt lat="45.286340" lon="14.202640">
        <ele>1426.7688</ele>
        <time>2012-05-01T06:08:06Z</time>
      </trkpt>
      <trkpt lat="45.286360" lon="14.202710">
        <ele>1424.6352</ele>
        <time>2012-05-01T06:08:19Z</time>
      </trkpt>
      <trkpt lat="45.286380" lon="14.202770">
        <ele>1422.1968</ele>
        <time>2012-05-01T06:08:56Z</time>
      </trkpt>
      <trkpt lat="45.286430" lon="14.202800">
        <ele>1420.9776</ele>
        <time>2012-05-01T06:09:00Z</time>
      </trkpt>
      <trkpt lat="45.286460" lon="14.202850">
        <ele>1420.6728</ele>
        <time>2012-05-01T06:09:04Z</time>
      </trkpt>
      <trkpt lat="45.286510" lon="14.202900">
        <ele>1420.6728</ele>
        <time>2012-05-01T06:09:08Z</time>
      </trkpt>
      <trkpt lat="45.286550" lon="14.202930">
        <ele>1421.2824</ele>
        <time>2012-05-01T06:09:13Z</time>
      </trkpt>
      <trkpt lat="45.286590" lon="14.202970">
        <ele>1420.9776</ele>
        <time>2012-05-01T06:09:17Z</time>
      </trkpt>
      <trkpt lat="45.286650" lon="14.202990">
        <ele>1422.8064</ele>
        <time>2012-05-01T06:09:21Z</time>
      </trkpt>
      <trkpt lat="45.286680" lon="14.203040">
        <ele>1421.5872</ele>
        <time>2012-05-01T06:09:25Z</time>
      </trkpt>
      <trkpt lat="45.286710" lon="14.203080">
        <ele>1421.2824</ele>
        <time>2012-05-01T06:09:31Z</time>
      </trkpt>
      <trkpt lat="45.286760" lon="14.203130">
        <ele>1422.1968</ele>
        <time>2012-05-01T06:09:36Z</time>
      </trkpt>
      <trkpt lat="45.286790" lon="14.203180">
        <ele>1422.5016</ele>
        <time>2012-05-01T06:09:40Z</time>
      </trkpt>
      <trkpt lat="45.286830" lon="14.203240">
        <ele>1422.5016</ele>
        <time>2012-05-01T06:09:44Z</time>
      </trkpt>
      <trkpt lat="45.286850" lon="14.203300">
        <ele>1425.5496</ele>
        <time>2012-05-01T06:09:48Z</time>
      </trkpt>
      <trkpt lat="45.286890" lon="14.203350">
        <ele>1426.7688</ele>
        <time>2012-05-01T06:09:54Z</time>
      </trkpt>
      <trkpt lat="45.286940" lon="14.203410">
        <ele>1428.2928</ele>
        <time>2012-05-01T06:09:59Z</time>
      </trkpt>
      <trkpt lat="45.286990" lon="14.203430">
        <ele>1427.6832</ele>
        <time>2012-05-01T06:10:02Z</time>
      </trkpt>
      <trkpt lat="45.287010" lon="14.203490">
        <ele>1426.7688</ele>
        <time>2012-05-01T06:10:04Z</time>
      </trkpt>
      <trkpt lat="45.287040" lon="14.203540">
        <ele>1425.5496</ele>
        <time>2012-05-01T06:10:07Z</time>
      </trkpt>
      <trkpt lat="45.287070" lon="14.203600">
        <ele>1424.6352</ele>
        <time>2012-05-01T06:10:11Z</time>
      </trkpt>
      <trkpt lat="45.287100" lon="14.203670">
        <ele>1426.1592</ele>
        <time>2012-05-01T06:10:15Z</time>
      </trkpt>
      <trkpt lat="45.287150" lon="14.203740">
        <ele>1424.94</ele>
        <time>2012-05-01T06:10:19Z</time>
      </trkpt>
      <trkpt lat="45.287240" lon="14.203820">
        <ele>1421.5872</ele>
        <time>2012-05-01T06:10:25Z</time>
      </trkpt>
      <trkpt lat="45.287250" lon="14.203880">
        <ele>1417.0152</ele>
        <time>2012-05-01T06:10:27Z</time>
      </trkpt>
      <trkpt lat="45.287240" lon="14.203950">
        <ele>1420.9776</ele>
        <time>2012-05-01T06:10:33Z</time>
      </trkpt>
      <trkpt lat="45.287270" lon="14.204000">
        <ele>1420.0632</ele>
        <time>2012-05-01T06:10:37Z</time>
      </trkpt>
      <trkpt lat="45.287300" lon="14.204070">
        <ele>1419.1488</ele>
        <time>2012-05-01T06:10:39Z</time>
      </trkpt>
      <trkpt lat="45.287330" lon="14.204130">
        <ele>1418.2344</ele>
        <time>2012-05-01T06:10:44Z</time>
      </trkpt>
      <trkpt lat="45.287360" lon="14.204190">
        <ele>1417.9296</ele>
        <time>2012-05-01T06:10:48Z</time>
      </trkpt>
      <trkpt lat="45.287400" lon="14.204230">
        <ele>1416.4056</ele>
        <time>2012-05-01T06:10:49Z</time>
      </trkpt>
      <trkpt lat="45.287440" lon="14.204290">
        <ele>1415.796</ele>
        <time>2012-05-01T06:10:54Z</time>
      </trkpt>
      <trkpt lat="45.287480" lon="14.204350">
        <ele>1415.1864</ele>
        <time>2012-05-01T06:10:58Z</time>
      </trkpt>
      <trkpt lat="45.287550" lon="14.204340">
        <ele>1415.4912</ele>
        <time>2012-05-01T06:11:01Z</time>
      </trkpt>
      <trkpt lat="45.287590" lon="14.204380">
        <ele>1415.1864</ele>
        <time>2012-05-01T06:11:05Z</time>
      </trkpt>
      <trkpt lat="45.287640" lon="14.204400">
        <ele>1414.8816</ele>
        <time>2012-05-01T06:11:09Z</time>
      </trkpt>
      <trkpt lat="45.287690" lon="14.204410">
        <ele>1414.8816</ele>
        <time>2012-05-01T06:11:13Z</time>
      </trkpt>
      <trkpt lat="45.287740" lon="14.204440">
        <ele>1414.272</ele>
        <time>2012-05-01T06:11:16Z</time>
      </trkpt>
      <trkpt lat="45.287790" lon="14.204440">
        <ele>1413.6624</ele>
        <time>2012-05-01T06:11:19Z</time>
      </trkpt>
      <trkpt lat="45.287840" lon="14.204440">
        <ele>1413.6624</ele>
        <time>2012-05-01T06:11:20Z</time>
      </trkpt>
      <trkpt lat="45.287880" lon="14.204450">
        <ele>1412.748</ele>
        <time>2012-05-01T06:11:24Z</time>
      </trkpt>
      <trkpt lat="45.287910" lon="14.204380">
        <ele>1411.5288</ele>
        <time>2012-05-01T06:11:28Z</time>
      </trkpt>
      <trkpt lat="45.287970" lon="14.204380">
        <ele>1410.9192</ele>
        <time>2012-05-01T06:11:31Z</time>
      </trkpt>
      <trkpt lat="45.288030" lon="14.204360">
        <ele>1408.7856</ele>
        <time>2012-05-01T06:11:33Z</time>
      </trkpt>
      <trkpt lat="45.288090" lon="14.204330">
        <ele>1408.7856</ele>
        <time>2012-05-01T06:11:36Z</time>
      </trkpt>
      <trkpt lat="45.288140" lon="14.204330">
        <ele>1408.7856</ele>
        <time>2012-05-01T06:11:43Z</time>
      </trkpt>
      <trkpt lat="45.288190" lon="14.204300">
        <ele>1406.652</ele>
        <time>2012-05-01T06:11:47Z</time>
      </trkpt>
      <trkpt lat="45.288240" lon="14.204270">
        <ele>1410.9192</ele>
        <time>2012-05-01T06:11:52Z</time>
      </trkpt>
      <trkpt lat="45.288280" lon="14.204230">
        <ele>1413.3576</ele>
        <time>2012-05-01T06:11:58Z</time>
      </trkpt>
      <trkpt lat="45.288330" lon="14.204210">
        <ele>1412.4432</ele>
        <time>2012-05-01T06:12:02Z</time>
      </trkpt>
      <trkpt lat="45.288380" lon="14.204220">
        <ele>1411.5288</ele>
        <time>2012-05-01T06:12:06Z</time>
      </trkpt>
      <trkpt lat="45.288430" lon="14.204230">
        <ele>1415.4912</ele>
        <time>2012-05-01T06:12:10Z</time>
      </trkpt>
      <trkpt lat="45.288490" lon="14.204210">
        <ele>1415.796</ele>
        <time>2012-05-01T06:12:17Z</time>
      </trkpt>
      <trkpt lat="45.288540" lon="14.204210">
        <ele>1414.8816</ele>
        <time>2012-05-01T06:12:18Z</time>
      </trkpt>
      <trkpt lat="45.288600" lon="14.204190">
        <ele>1413.9672</ele>
        <time>2012-05-01T06:12:21Z</time>
      </trkpt>
      <trkpt lat="45.288640" lon="14.204160">
        <ele>1411.8336</ele>
        <time>2012-05-01T06:12:23Z</time>
      </trkpt>
      <trkpt lat="45.288690" lon="14.204150">
        <ele>1413.9672</ele>
        <time>2012-05-01T06:12:29Z</time>
      </trkpt>
      <trkpt lat="45.288760" lon="14.204150">
        <ele>1412.748</ele>
        <time>2012-05-01T06:12:33Z</time>
      </trkpt>
      <trkpt lat="45.288780" lon="14.204100">
        <ele>1411.8336</ele>
        <time>2012-05-01T06:12:34Z</time>
      </trkpt>
      <trkpt lat="45.288830" lon="14.204070">
        <ele>1407.2616</ele>
        <time>2012-05-01T06:12:37Z</time>
      </trkpt>
      <trkpt lat="45.288880" lon="14.204040">
        <ele>1404.2136</ele>
        <time>2012-05-01T06:12:38Z</time>
      </trkpt>
      <trkpt lat="45.288950" lon="14.204030">
        <ele>1402.08</ele>
        <time>2012-05-01T06:12:41Z</time>
      </trkpt>
      <trkpt lat="45.288980" lon="14.203990">
        <ele>1402.9944</ele>
        <time>2012-05-01T06:12:45Z</time>
      </trkpt>
      <trkpt lat="45.289040" lon="14.203960">
        <ele>1399.6416</ele>
        <time>2012-05-01T06:12:48Z</time>
      </trkpt>
      <trkpt lat="45.289070" lon="14.203910">
        <ele>1398.1176</ele>
        <time>2012-05-01T06:12:52Z</time>
      </trkpt>
      <trkpt lat="45.289100" lon="14.203860">
        <ele>1397.2032</ele>
        <time>2012-05-01T06:12:54Z</time>
      </trkpt>
      <trkpt lat="45.289160" lon="14.203860">
        <ele>1397.2032</ele>
        <time>2012-05-01T06:12:59Z</time>
      </trkpt>
      <trkpt lat="45.289200" lon="14.203810">
        <ele>1394.1552</ele>
        <time>2012-05-01T06:13:01Z</time>
      </trkpt>
      <trkpt lat="45.289200" lon="14.203740">
        <ele>1393.8504</ele>
        <time>2012-05-01T06:13:08Z</time>
      </trkpt>
      <trkpt lat="45.289260" lon="14.203720">
        <ele>1393.2408</ele>
        <time>2012-05-01T06:13:16Z</time>
      </trkpt>
      <trkpt lat="45.289290" lon="14.203680">
        <ele>1391.1072</ele>
        <time>2012-05-01T06:13:20Z</time>
      </trkpt>
      <trkpt lat="45.289320" lon="14.203620">
        <ele>1391.1072</ele>
        <time>2012-05-01T06:13:24Z</time>
      </trkpt>
      <trkpt lat="45.289360" lon="14.203580">
        <ele>1391.412</ele>
        <time>2012-05-01T06:13:30Z</time>
      </trkpt>
      <trkpt lat="45.289420" lon="14.203510">
        <ele>1393.2408</ele>
        <time>2012-05-01T06:13:32Z</time>
      </trkpt>
      <trkpt lat="45.289450" lon="14.203460">
        <ele>1393.2408</ele>
        <time>2012-05-01T06:13:35Z</time>
      </trkpt>
      <trkpt lat="45.289500" lon="14.203450">
        <ele>1393.8504</ele>
        <time>2012-05-01T06:13:39Z</time>
      </trkpt>
      <trkpt lat="45.289560" lon="14.203410">
        <ele>1394.7648</ele>
        <time>2012-05-01T06:13:43Z</time>
      </trkpt>
      <trkpt lat="45.289600" lon="14.203350">
        <ele>1394.1552</ele>
        <time>2012-05-01T06:13:47Z</time>
      </trkpt>
      <trkpt lat="45.289620" lon="14.203280">
        <ele>1393.5456</ele>
        <time>2012-05-01T06:13:48Z</time>
      </trkpt>
      <trkpt lat="45.289650" lon="14.203220">
        <ele>1394.7648</ele>
        <time>2012-05-01T06:13:51Z</time>
      </trkpt>
      <trkpt lat="45.289700" lon="14.203220">
        <ele>1394.46</ele>
        <time>2012-05-01T06:13:55Z</time>
      </trkpt>
      <trkpt lat="45.289750" lon="14.203200">
        <ele>1393.2408</ele>
        <time>2012-05-01T06:13:58Z</time>
      </trkpt>
      <trkpt lat="45.289790" lon="14.203160">
        <ele>1388.364</ele>
        <time>2012-05-01T06:14:02Z</time>
      </trkpt>
      <trkpt lat="45.289840" lon="14.203140">
        <ele>1385.6208</ele>
        <time>2012-05-01T06:14:03Z</time>
      </trkpt>
      <trkpt lat="45.289880" lon="14.203110">
        <ele>1383.4872</ele>
        <time>2012-05-01T06:14:06Z</time>
      </trkpt>
      <trkpt lat="45.289910" lon="14.203060">
        <ele>1383.4872</ele>
        <time>2012-05-01T06:14:09Z</time>
      </trkpt>
      <trkpt lat="45.289960" lon="14.203080">
        <ele>1382.8776</ele>
        <time>2012-05-01T06:14:11Z</time>
      </trkpt>
      <trkpt lat="45.290020" lon="14.203040">
        <ele>1381.0488</ele>
        <time>2012-05-01T06:14:14Z</time>
      </trkpt>
      <trkpt lat="45.290060" lon="14.203030">
        <ele>1380.1344</ele>
        <time>2012-05-01T06:14:15Z</time>
      </trkpt>
      <trkpt lat="45.290100" lon="14.202990">
        <ele>1380.1344</ele>
        <time>2012-05-01T06:14:17Z</time>
      </trkpt>
      <trkpt lat="45.290140" lon="14.203040">
        <ele>1381.0488</ele>
        <time>2012-05-01T06:14:32Z</time>
      </trkpt>
      <trkpt lat="45.290190" lon="14.203080">
        <ele>1381.0488</ele>
        <time>2012-05-01T06:14:34Z</time>
      </trkpt>
      <trkpt lat="45.290240" lon="14.203110">
        <ele>1381.6584</ele>
        <time>2012-05-01T06:14:37Z</time>
      </trkpt>
      <trkpt lat="45.290280" lon="14.203150">
        <ele>1382.5728</ele>
        <time>2012-05-01T06:14:42Z</time>
      </trkpt>
      <trkpt lat="45.290330" lon="14.203150">
        <ele>1374.648</ele>
        <time>2012-05-01T06:14:52Z</time>
      </trkpt>
      <trkpt lat="45.290390" lon="14.203180">
        <ele>1374.648</ele>
        <time>2012-05-01T06:15:26Z</time>
      </trkpt>
      <trkpt lat="45.290430" lon="14.203220">
        <ele>1375.8672</ele>
        <time>2012-05-01T06:15:31Z</time>
      </trkpt>
      <trkpt lat="45.290460" lon="14.203260">
        <ele>1379.22</ele>
        <time>2012-05-01T06:15:35Z</time>
      </trkpt>
      <trkpt lat="45.290520" lon="14.203280">
        <ele>1383.792</ele>
        <time>2012-05-01T06:15:39Z</time>
      </trkpt>
      <trkpt lat="45.290570" lon="14.203300">
        <ele>1386.2304</ele>
        <time>2012-05-01T06:15:43Z</time>
      </trkpt>
      <trkpt lat="45.290610" lon="14.203330">
        <ele>1384.7064</ele>
        <time>2012-05-01T06:15:47Z</time>
      </trkpt>
      <trkpt lat="45.290650" lon="14.203350">
        <ele>1384.4016</ele>
        <time>2012-05-01T06:15:50Z</time>
      </trkpt>
      <trkpt lat="45.290690" lon="14.203400">
        <ele>1389.888</ele>
        <time>2012-05-01T06:16:01Z</time>
      </trkpt>
      <trkpt lat="45.290710" lon="14.203460">
        <ele>1391.1072</ele>
        <time>2012-05-01T06:16:02Z</time>
      </trkpt>
      <trkpt lat="45.290750" lon="14.203450">
        <ele>1390.1928</ele>
        <time>2012-05-01T06:16:03Z</time>
      </trkpt>
      <trkpt lat="45.290790" lon="14.203480">
        <ele>1393.8504</ele>
        <time>2012-05-01T06:16:06Z</time>
      </trkpt>
      <trkpt lat="45.290840" lon="14.203510">
        <ele>1392.936</ele>
        <time>2012-05-01T06:16:13Z</time>
      </trkpt>
      <trkpt lat="45.290900" lon="14.203520">
        <ele>1396.8984</ele>
        <time>2012-05-01T06:16:20Z</time>
      </trkpt>
      <trkpt lat="45.290950" lon="14.203590">
        <ele>1398.1176</ele>
        <time>2012-05-01T06:16:26Z</time>
      </trkpt>
      <trkpt lat="45.291000" lon="14.203660">
        <ele>1401.1656</ele>
        <time>2012-05-01T06:16:33Z</time>
      </trkpt>
      <trkpt lat="45.291050" lon="14.203710">
        <ele>1404.8232</ele>
        <time>2012-05-01T06:16:37Z</time>
      </trkpt>
      <trkpt lat="45.291080" lon="14.203770">
        <ele>1406.652</ele>
        <time>2012-05-01T06:16:48Z</time>
      </trkpt>
      <trkpt lat="45.291110" lon="14.203820">
        <ele>1408.7856</ele>
        <time>2012-05-01T06:16:55Z</time>
      </trkpt>
      <trkpt lat="45.291150" lon="14.203890">
        <ele>1410.3096</ele>
        <time>2012-05-01T06:16:59Z</time>
      </trkpt>
      <trkpt lat="45.291200" lon="14.203910">
        <ele>1409.7</ele>
        <time>2012-05-01T06:17:11Z</time>
      </trkpt>
      <trkpt lat="45.291270" lon="14.203940">
        <ele>1409.7</ele>
        <time>2012-05-01T06:17:14Z</time>
      </trkpt>
      <trkpt lat="45.291330" lon="14.203950">
        <ele>1409.0904</ele>
        <time>2012-05-01T06:17:16Z</time>
      </trkpt>
      <trkpt lat="45.291380" lon="14.203940">
        <ele>1407.5664</ele>
        <time>2012-05-01T06:17:22Z</time>
      </trkpt>
      <trkpt lat="45.291440" lon="14.203970">
        <ele>1410.6144</ele>
        <time>2012-05-01T06:17:30Z</time>
      </trkpt>
      <trkpt lat="45.291480" lon="14.204000">
        <ele>1411.8336</ele>
        <time>2012-05-01T06:17:34Z</time>
      </trkpt>
      <trkpt lat="45.291510" lon="14.204040">
        <ele>1414.8816</ele>
        <time>2012-05-01T06:17:38Z</time>
      </trkpt>
      <trkpt lat="45.291560" lon="14.204050">
        <ele>1414.272</ele>
        <time>2012-05-01T06:17:42Z</time>
      </trkpt>
      <trkpt lat="45.291620" lon="14.204070">
        <ele>1413.3576</ele>
        <time>2012-05-01T06:17:46Z</time>
      </trkpt>
      <trkpt lat="45.291680" lon="14.204080">
        <ele>1413.3576</ele>
        <time>2012-05-01T06:17:53Z</time>
      </trkpt>
      <trkpt lat="45.291730" lon="14.204110">
        <ele>1413.3576</ele>
        <time>2012-05-01T06:17:54Z</time>
      </trkpt>
      <trkpt lat="45.291770" lon="14.204130">
        <ele>1410.9192</ele>
        <time>2012-05-01T06:17:57Z</time>
      </trkpt>
      <trkpt lat="45.291830" lon="14.204160">
        <ele>1408.7856</ele>
        <time>2012-05-01T06:18:01Z</time>
      </trkpt>
      <trkpt lat="45.291880" lon="14.204160">
        <ele>1406.9568</ele>
        <time>2012-05-01T06:18:02Z</time>
      </trkpt>
      <trkpt lat="45.291940" lon="14.204110">
        <ele>1402.08</ele>
        <time>2012-05-01T06:18:05Z</time>
      </trkpt>
      <trkpt lat="45.291980" lon="14.204050">
        <ele>1398.1176</ele>
        <time>2012-05-01T06:18:08Z</time>
      </trkpt>
      <trkpt lat="45.292020" lon="14.204010">
        <ele>1397.2032</ele>
        <time>2012-05-01T06:18:09Z</time>
      </trkpt>
      <trkpt lat="45.292060" lon="14.203970">
        <ele>1392.6312</ele>
        <time>2012-05-01T06:18:13Z</time>
      </trkpt>
      <trkpt lat="45.292110" lon="14.203940">
        <ele>1390.1928</ele>
        <time>2012-05-01T06:18:23Z</time>
      </trkpt>
      <trkpt lat="45.292170" lon="14.203920">
        <ele>1395.6792</ele>
        <time>2012-05-01T06:18:31Z</time>
      </trkpt>
      <trkpt lat="45.292230" lon="14.203940">
        <ele>1396.2888</ele>
        <time>2012-05-01T06:18:33Z</time>
      </trkpt>
      <trkpt lat="45.292280" lon="14.203840">
        <ele>1394.7648</ele>
        <time>2012-05-01T06:18:39Z</time>
      </trkpt>
      <trkpt lat="45.292300" lon="14.203780">
        <ele>1395.0696</ele>
        <time>2012-05-01T06:18:40Z</time>
      </trkpt>
      <trkpt lat="45.292280" lon="14.203700">
        <ele>1394.1552</ele>
        <time>2012-05-01T06:18:43Z</time>
      </trkpt>
      <trkpt lat="45.292320" lon="14.203690">
        <ele>1396.5936</ele>
        <time>2012-05-01T06:18:48Z</time>
      </trkpt>
      <trkpt lat="45.292370" lon="14.203670">
        <ele>1395.3744</ele>
        <time>2012-05-01T06:18:51Z</time>
      </trkpt>
      <trkpt lat="45.292410" lon="14.203630">
        <ele>1401.4704</ele>
        <time>2012-05-01T06:18:58Z</time>
      </trkpt>
      <trkpt lat="45.292480" lon="14.203610">
        <ele>1398.4224</ele>
        <time>2012-05-01T06:19:07Z</time>
      </trkpt>
      <trkpt lat="45.292530" lon="14.203620">
        <ele>1398.4224</ele>
        <time>2012-05-01T06:19:11Z</time>
      </trkpt>
      <trkpt lat="45.292570" lon="14.203630">
        <ele>1393.5456</ele>
        <time>2012-05-01T06:19:11Z</time>
      </trkpt>
      <trkpt lat="45.292620" lon="14.203630">
        <ele>1388.6688</ele>
        <time>2012-05-01T06:19:15Z</time>
      </trkpt>
      <trkpt lat="45.292670" lon="14.203610">
        <ele>1384.7064</ele>
        <time>2012-05-01T06:19:19Z</time>
      </trkpt>
      <trkpt lat="45.292750" lon="14.203640">
        <ele>1381.3536</ele>
        <time>2012-05-01T06:19:26Z</time>
      </trkpt>
      <trkpt lat="45.292810" lon="14.203660">
        <ele>1380.744</ele>
        <time>2012-05-01T06:19:34Z</time>
      </trkpt>
      <trkpt lat="45.292850" lon="14.203710">
        <ele>1378.0008</ele>
        <time>2012-05-01T06:19:37Z</time>
      </trkpt>
      <trkpt lat="45.292890" lon="14.203750">
        <ele>1380.1344</ele>
        <time>2012-05-01T06:19:41Z</time>
      </trkpt>
      <trkpt lat="45.292920" lon="14.203700">
        <ele>1380.4392</ele>
        <time>2012-05-01T06:19:46Z</time>
      </trkpt>
      <trkpt lat="45.292970" lon="14.203690">
        <ele>1379.22</ele>
        <time>2012-05-01T06:19:53Z</time>
      </trkpt>
      <trkpt lat="45.293020" lon="14.203740">
        <ele>1375.8672</ele>
        <time>2012-05-01T06:19:57Z</time>
      </trkpt>
      <trkpt lat="45.293080" lon="14.203740">
        <ele>1372.5144</ele>
        <time>2012-05-01T06:19:58Z</time>
      </trkpt>
      <trkpt lat="45.293140" lon="14.203750">
        <ele>1372.2096</ele>
        <time>2012-05-01T06:20:01Z</time>
      </trkpt>
      <trkpt lat="45.293200" lon="14.203740">
        <ele>1375.5624</ele>
        <time>2012-05-01T06:20:05Z</time>
      </trkpt>
      <trkpt lat="45.293240" lon="14.203800">
        <ele>1375.2576</ele>
        <time>2012-05-01T06:20:09Z</time>
      </trkpt>
      <trkpt lat="45.293250" lon="14.203730">
        <ele>1372.8192</ele>
        <time>2012-05-01T06:20:12Z</time>
      </trkpt>
      <trkpt lat="45.293310" lon="14.203740">
        <ele>1370.9904</ele>
        <time>2012-05-01T06:20:15Z</time>
      </trkpt>
      <trkpt lat="45.293360" lon="14.203730">
        <ele>1372.5144</ele>
        <time>2012-05-01T06:20:17Z</time>
      </trkpt>
      <trkpt lat="45.293420" lon="14.203720">
        <ele>1373.7336</ele>
        <time>2012-05-01T06:20:20Z</time>
      </trkpt>
      <trkpt lat="45.293470" lon="14.203740">
        <ele>1364.8944</ele>
        <time>2012-05-01T06:20:27Z</time>
      </trkpt>
      <trkpt lat="45.293530" lon="14.203690">
        <ele>1360.0176</ele>
        <time>2012-05-01T06:20:29Z</time>
      </trkpt>
      <trkpt lat="45.293560" lon="14.203650">
        <ele>1363.3704</ele>
        <time>2012-05-01T06:20:35Z</time>
      </trkpt>
      <trkpt lat="45.293610" lon="14.203640">
        <ele>1360.0176</ele>
        <time>2012-05-01T06:20:38Z</time>
      </trkpt>
      <trkpt lat="45.293670" lon="14.203640">
        <ele>1357.884</ele>
        <time>2012-05-01T06:20:40Z</time>
      </trkpt>
      <trkpt lat="45.293720" lon="14.203610">
        <ele>1354.2264</ele>
        <time>2012-05-01T06:20:43Z</time>
      </trkpt>
      <trkpt lat="45.293770" lon="14.203620">
        <ele>1352.0928</ele>
        <time>2012-05-01T06:20:46Z</time>
      </trkpt>
      <trkpt lat="45.293790" lon="14.203530">
        <ele>1351.1784</ele>
        <time>2012-05-01T06:20:58Z</time>
      </trkpt>
      <trkpt lat="45.293820" lon="14.203440">
        <ele>1350.8736</ele>
        <time>2012-05-01T06:21:00Z</time>
      </trkpt>
      <trkpt lat="45.293860" lon="14.203380">
        <ele>1349.0448</ele>
        <time>2012-05-01T06:21:03Z</time>
      </trkpt>
      <trkpt lat="45.293880" lon="14.203320">
        <ele>1348.4352</ele>
        <time>2012-05-01T06:21:05Z</time>
      </trkpt>
      <trkpt lat="45.293900" lon="14.203260">
        <ele>1347.5208</ele>
        <time>2012-05-01T06:21:10Z</time>
      </trkpt>
      <trkpt lat="45.293910" lon="14.203190">
        <ele>1346.3016</ele>
        <time>2012-05-01T06:21:14Z</time>
      </trkpt>
      <trkpt lat="45.293890" lon="14.203120">
        <ele>1346.9112</ele>
        <time>2012-05-01T06:21:21Z</time>
      </trkpt>
      <trkpt lat="45.293920" lon="14.203040">
        <ele>1343.5584</ele>
        <time>2012-05-01T06:21:25Z</time>
      </trkpt>
      <trkpt lat="45.293930" lon="14.202970">
        <ele>1342.644</ele>
        <time>2012-05-01T06:21:27Z</time>
      </trkpt>
      <trkpt lat="45.293970" lon="14.202910">
        <ele>1341.12</ele>
        <time>2012-05-01T06:21:34Z</time>
      </trkpt>
      <trkpt lat="45.294020" lon="14.202880">
        <ele>1341.4248</ele>
        <time>2012-05-01T06:21:36Z</time>
      </trkpt>
      <trkpt lat="45.294060" lon="14.202790">
        <ele>1340.2056</ele>
        <time>2012-05-01T06:21:41Z</time>
      </trkpt>
      <trkpt lat="45.294080" lon="14.202730">
        <ele>1338.9864</ele>
        <time>2012-05-01T06:21:44Z</time>
      </trkpt>
      <trkpt lat="45.294100" lon="14.202640">
        <ele>1338.6816</ele>
        <time>2012-05-01T06:21:46Z</time>
      </trkpt>
      <trkpt lat="45.294150" lon="14.202660">
        <ele>1334.7192</ele>
        <time>2012-05-01T06:21:48Z</time>
      </trkpt>
      <trkpt lat="45.294190" lon="14.202620">
        <ele>1335.3288</ele>
        <time>2012-05-01T06:21:52Z</time>
      </trkpt>
      <trkpt lat="45.294230" lon="14.202590">
        <ele>1336.2432</ele>
        <time>2012-05-01T06:21:54Z</time>
      </trkpt>
      <trkpt lat="45.294290" lon="14.202580">
        <ele>1336.8528</ele>
        <time>2012-05-01T06:22:01Z</time>
      </trkpt>
      <trkpt lat="45.294340" lon="14.202550">
        <ele>1338.072</ele>
        <time>2012-05-01T06:22:05Z</time>
      </trkpt>
      <trkpt lat="45.294380" lon="14.202530">
        <ele>1338.6816</ele>
        <time>2012-05-01T06:22:11Z</time>
      </trkpt>
      <trkpt lat="45.294430" lon="14.202470">
        <ele>1340.8152</ele>
        <time>2012-05-01T06:22:16Z</time>
      </trkpt>
      <trkpt lat="45.294470" lon="14.202450">
        <ele>1338.6816</ele>
        <time>2012-05-01T06:22:20Z</time>
      </trkpt>
      <trkpt lat="45.294530" lon="14.202450">
        <ele>1340.2056</ele>
        <time>2012-05-01T06:22:27Z</time>
      </trkpt>
      <trkpt lat="45.294590" lon="14.202480">
        <ele>1336.2432</ele>
        <time>2012-05-01T06:22:31Z</time>
      </trkpt>
      <trkpt lat="45.294630" lon="14.202530">
        <ele>1337.1576</ele>
        <time>2012-05-01T06:22:35Z</time>
      </trkpt>
      <trkpt lat="45.294670" lon="14.202560">
        <ele>1337.7672</ele>
        <time>2012-05-01T06:22:40Z</time>
      </trkpt>
      <trkpt lat="45.294710" lon="14.202610">
        <ele>1336.8528</ele>
        <time>2012-05-01T06:22:44Z</time>
      </trkpt>
      <trkpt lat="45.294760" lon="14.202650">
        <ele>1335.3288</ele>
        <time>2012-05-01T06:22:47Z</time>
      </trkpt>
      <trkpt lat="45.294850" lon="14.202670">
        <ele>1333.1952</ele>
        <time>2012-05-01T06:22:50Z</time>
      </trkpt>
      <trkpt lat="45.294900" lon="14.202710">
        <ele>1331.0616</ele>
        <time>2012-05-01T06:22:51Z</time>
      </trkpt>
      <trkpt lat="45.294940" lon="14.202720">
        <ele>1330.7568</ele>
        <time>2012-05-01T06:22:54Z</time>
      </trkpt>
      <trkpt lat="45.295010" lon="14.202720">
        <ele>1328.6232</ele>
        <time>2012-05-01T06:22:57Z</time>
      </trkpt>
      <trkpt lat="45.295050" lon="14.202700">
        <ele>1328.3184</ele>
        <time>2012-05-01T06:23:03Z</time>
      </trkpt>
      <trkpt lat="45.295100" lon="14.202720">
        <ele>1325.5752</ele>
        <time>2012-05-01T06:23:06Z</time>
      </trkpt>
      <trkpt lat="45.295140" lon="14.202740">
        <ele>1322.2224</ele>
        <time>2012-05-01T06:23:11Z</time>
      </trkpt>
      <trkpt lat="45.295200" lon="14.202750">
        <ele>1323.4416</ele>
        <time>2012-05-01T06:23:17Z</time>
      </trkpt>
      <trkpt lat="45.295250" lon="14.202720">
        <ele>1318.5648</ele>
        <time>2012-05-01T06:23:22Z</time>
      </trkpt>
      <trkpt lat="45.295300" lon="14.202710">
        <ele>1316.736</ele>
        <time>2012-05-01T06:23:25Z</time>
      </trkpt>
      <trkpt lat="45.295340" lon="14.202750">
        <ele>1314.6024</ele>
        <time>2012-05-01T06:23:32Z</time>
      </trkpt>
      <trkpt lat="45.295390" lon="14.202760">
        <ele>1316.736</ele>
        <time>2012-05-01T06:23:36Z</time>
      </trkpt>
      <trkpt lat="45.295420" lon="14.202720">
        <ele>1315.8216</ele>
        <time>2012-05-01T06:23:37Z</time>
      </trkpt>
      <trkpt lat="45.295480" lon="14.202770">
        <ele>1314.6024</ele>
        <time>2012-05-01T06:23:41Z</time>
      </trkpt>
      <trkpt lat="45.295540" lon="14.202760">
        <ele>1314.6024</ele>
        <time>2012-05-01T06:23:47Z</time>
      </trkpt>
      <trkpt lat="45.295600" lon="14.202780">
        <ele>1309.4208</ele>
        <time>2012-05-01T06:23:51Z</time>
      </trkpt>
      <trkpt lat="45.295660" lon="14.202780">
        <ele>1305.7632</ele>
        <time>2012-05-01T06:23:56Z</time>
      </trkpt>
      <trkpt lat="45.295700" lon="14.202810">
        <ele>1306.3728</ele>
        <time>2012-05-01T06:23:59Z</time>
      </trkpt>
      <trkpt lat="45.295760" lon="14.202860">
        <ele>1307.8968</ele>
        <time>2012-05-01T06:24:01Z</time>
      </trkpt>
      <trkpt lat="45.295810" lon="14.202830">
        <ele>1306.3728</ele>
        <time>2012-05-01T06:24:04Z</time>
      </trkpt>
      <trkpt lat="45.295860" lon="14.202830">
        <ele>1304.2392</ele>
        <time>2012-05-01T06:24:08Z</time>
      </trkpt>
      <trkpt lat="45.295910" lon="14.202870">
        <ele>1304.544</ele>
        <time>2012-05-01T06:24:11Z</time>
      </trkpt>
      <trkpt lat="45.295960" lon="14.202890">
        <ele>1302.7152</ele>
        <time>2012-05-01T06:24:12Z</time>
      </trkpt>
      <trkpt lat="45.296000" lon="14.202920">
        <ele>1302.1056</ele>
        <time>2012-05-01T06:24:23Z</time>
      </trkpt>
      <trkpt lat="45.296040" lon="14.202920">
        <ele>1301.1912</ele>
        <time>2012-05-01T06:24:36Z</time>
      </trkpt>
      <trkpt lat="45.296080" lon="14.202950">
        <ele>1300.5816</ele>
        <time>2012-05-01T06:24:39Z</time>
      </trkpt>
      <trkpt lat="45.296120" lon="14.202980">
        <ele>1301.496</ele>
        <time>2012-05-01T06:24:41Z</time>
      </trkpt>
      <trkpt lat="45.296170" lon="14.203020">
        <ele>1301.1912</ele>
        <time>2012-05-01T06:24:43Z</time>
      </trkpt>
      <trkpt lat="45.296210" lon="14.203070">
        <ele>1301.8008</ele>
        <time>2012-05-01T06:24:47Z</time>
      </trkpt>
      <trkpt lat="45.296250" lon="14.203130">
        <ele>1305.7632</ele>
        <time>2012-05-01T06:24:54Z</time>
      </trkpt>
      <trkpt lat="45.296300" lon="14.203180">
        <ele>1302.7152</ele>
        <time>2012-05-01T06:25:02Z</time>
      </trkpt>
      <trkpt lat="45.296340" lon="14.203250">
        <ele>1301.1912</ele>
        <time>2012-05-01T06:25:03Z</time>
      </trkpt>
      <trkpt lat="45.296340" lon="14.203310">
        <ele>1299.3624</ele>
        <time>2012-05-01T06:25:06Z</time>
      </trkpt>
      <trkpt lat="45.296360" lon="14.203370">
        <ele>1303.3248</ele>
        <time>2012-05-01T06:25:10Z</time>
      </trkpt>
      <trkpt lat="45.296400" lon="14.203430">
        <ele>1302.7152</ele>
        <time>2012-05-01T06:25:13Z</time>
      </trkpt>
      <trkpt lat="45.296430" lon="14.203520">
        <ele>1302.1056</ele>
        <time>2012-05-01T06:25:21Z</time>
      </trkpt>
      <trkpt lat="45.296420" lon="14.203580">
        <ele>1304.8488</ele>
        <time>2012-05-01T06:25:25Z</time>
      </trkpt>
      <trkpt lat="45.296410" lon="14.203650">
        <ele>1306.068</ele>
        <time>2012-05-01T06:25:30Z</time>
      </trkpt>
      <trkpt lat="45.296420" lon="14.203710">
        <ele>1308.8112</ele>
        <time>2012-05-01T06:25:33Z</time>
      </trkpt>
      <trkpt lat="45.296440" lon="14.203780">
        <ele>1310.64</ele>
        <time>2012-05-01T06:25:37Z</time>
      </trkpt>
      <trkpt lat="45.296430" lon="14.203850">
        <ele>1314.6024</ele>
        <time>2012-05-01T06:25:41Z</time>
      </trkpt>
      <trkpt lat="45.296380" lon="14.203870">
        <ele>1313.0784</ele>
        <time>2012-05-01T06:25:44Z</time>
      </trkpt>
      <trkpt lat="45.296380" lon="14.203940">
        <ele>1316.1264</ele>
        <time>2012-05-01T06:25:48Z</time>
      </trkpt>
      <trkpt lat="45.296380" lon="14.204020">
        <ele>1319.1744</ele>
        <time>2012-05-01T06:25:51Z</time>
      </trkpt>
      <trkpt lat="45.296360" lon="14.204080">
        <ele>1317.9552</ele>
        <time>2012-05-01T06:25:52Z</time>
      </trkpt>
      <trkpt lat="45.296390" lon="14.204130">
        <ele>1316.1264</ele>
        <time>2012-05-01T06:25:56Z</time>
      </trkpt>
      <trkpt lat="45.296410" lon="14.204190">
        <ele>1316.4312</ele>
        <time>2012-05-01T06:26:02Z</time>
      </trkpt>
      <trkpt lat="45.296380" lon="14.204240">
        <ele>1314.2976</ele>
        <time>2012-05-01T06:26:03Z</time>
      </trkpt>
      <trkpt lat="45.296350" lon="14.204300">
        <ele>1315.212</ele>
        <time>2012-05-01T06:26:06Z</time>
      </trkpt>
      <trkpt lat="45.296300" lon="14.204320">
        <ele>1313.688</ele>
        <time>2012-05-01T06:26:11Z</time>
      </trkpt>
      <trkpt lat="45.296250" lon="14.204290">
        <ele>1312.4688</ele>
        <time>2012-05-01T06:26:19Z</time>
      </trkpt>
      <trkpt lat="45.296220" lon="14.204340">
        <ele>1309.4208</ele>
        <time>2012-05-01T06:26:27Z</time>
      </trkpt>
      <trkpt lat="45.296180" lon="14.204370">
        <ele>1310.64</ele>
        <time>2012-05-01T06:26:34Z</time>
      </trkpt>
      <trkpt lat="45.296140" lon="14.204450">
        <ele>1309.116</ele>
        <time>2012-05-01T06:26:38Z</time>
      </trkpt>
      <trkpt lat="45.296070" lon="14.204470">
        <ele>1304.544</ele>
        <time>2012-05-01T06:26:41Z</time>
      </trkpt>
      <trkpt lat="45.296020" lon="14.204460">
        <ele>1303.9344</ele>
        <time>2012-05-01T06:26:42Z</time>
      </trkpt>
      <trkpt lat="45.295980" lon="14.204500">
        <ele>1304.8488</ele>
        <time>2012-05-01T06:26:45Z</time>
      </trkpt>
      <trkpt lat="45.295930" lon="14.204490">
        <ele>1305.7632</ele>
        <time>2012-05-01T06:26:46Z</time>
      </trkpt>
      <trkpt lat="45.295890" lon="14.204550">
        <ele>1305.7632</ele>
        <time>2012-05-01T06:26:50Z</time>
      </trkpt>
      <trkpt lat="45.295890" lon="14.204480">
        <ele>1306.9824</ele>
        <time>2012-05-01T06:26:54Z</time>
      </trkpt>
      <trkpt lat="45.295830" lon="14.204550">
        <ele>1301.1912</ele>
        <time>2012-05-01T06:26:58Z</time>
      </trkpt>
      <trkpt lat="45.295780" lon="14.204550">
        <ele>1301.8008</ele>
        <time>2012-05-01T06:27:02Z</time>
      </trkpt>
      <trkpt lat="45.295730" lon="14.204560">
        <ele>1303.02</ele>
        <time>2012-05-01T06:27:05Z</time>
      </trkpt>
      <trkpt lat="45.295680" lon="14.204520">
        <ele>1302.4104</ele>
        <time>2012-05-01T06:27:09Z</time>
      </trkpt>
      <trkpt lat="45.295650" lon="14.204480">
        <ele>1299.0576</ele>
        <time>2012-05-01T06:27:13Z</time>
      </trkpt>
      <trkpt lat="45.295670" lon="14.204420">
        <ele>1306.068</ele>
        <time>2012-05-01T06:27:16Z</time>
      </trkpt>
      <trkpt lat="45.295600" lon="14.204390">
        <ele>1310.0304</ele>
        <time>2012-05-01T06:27:21Z</time>
      </trkpt>
      <trkpt lat="45.295530" lon="14.204380">
        <ele>1308.8112</ele>
        <time>2012-05-01T06:27:24Z</time>
      </trkpt>
      <trkpt lat="45.295460" lon="14.204360">
        <ele>1311.2496</ele>
        <time>2012-05-01T06:27:28Z</time>
      </trkpt>
      <trkpt lat="45.295400" lon="14.204350">
        <ele>1315.8216</ele>
        <time>2012-05-01T06:27:31Z</time>
      </trkpt>
      <trkpt lat="45.295340" lon="14.204370">
        <ele>1320.6984</ele>
        <time>2012-05-01T06:27:36Z</time>
      </trkpt>
      <trkpt lat="45.295290" lon="14.204350">
        <ele>1320.3936</ele>
        <time>2012-05-01T06:27:37Z</time>
      </trkpt>
      <trkpt lat="45.295230" lon="14.204330">
        <ele>1324.0512</ele>
        <time>2012-05-01T06:27:41Z</time>
      </trkpt>
      <trkpt lat="45.295180" lon="14.204340">
        <ele>1323.4416</ele>
        <time>2012-05-01T06:27:44Z</time>
      </trkpt>
      <trkpt lat="45.295150" lon="14.204400">
        <ele>1318.26</ele>
        <time>2012-05-01T06:27:45Z</time>
      </trkpt>
      <trkpt lat="45.295100" lon="14.204460">
        <ele>1311.5544</ele>
        <time>2012-05-01T06:27:48Z</time>
      </trkpt>
      <trkpt lat="45.295040" lon="14.204500">
        <ele>1308.2016</ele>
        <time>2012-05-01T06:27:51Z</time>
      </trkpt>
      <trkpt lat="45.295000" lon="14.204530">
        <ele>1307.8968</ele>
        <time>2012-05-01T06:27:54Z</time>
      </trkpt>
      <trkpt lat="45.294940" lon="14.204580">
        <ele>1313.0784</ele>
        <time>2012-05-01T06:28:00Z</time>
      </trkpt>
      <trkpt lat="45.294890" lon="14.204610">
        <ele>1313.3832</ele>
        <time>2012-05-01T06:28:02Z</time>
      </trkpt>
      <trkpt lat="45.294910" lon="14.204680">
        <ele>1314.2976</ele>
        <time>2012-05-01T06:28:03Z</time>
      </trkpt>
      <trkpt lat="45.294880" lon="14.204750">
        <ele>1310.64</ele>
        <time>2012-05-01T06:28:06Z</time>
      </trkpt>
      <trkpt lat="45.294890" lon="14.204820">
        <ele>1303.6296</ele>
        <time>2012-05-01T06:28:10Z</time>
      </trkpt>
      <trkpt lat="45.294910" lon="14.204900">
        <ele>1301.8008</ele>
        <time>2012-05-01T06:28:11Z</time>
      </trkpt>
      <trkpt lat="45.294890" lon="14.204960">
        <ele>1299.0576</ele>
        <time>2012-05-01T06:28:14Z</time>
      </trkpt>
      <trkpt lat="45.294880" lon="14.205030">
        <ele>1298.448</ele>
        <time>2012-05-01T06:28:15Z</time>
      </trkpt>
      <trkpt lat="45.294870" lon="14.205100">
        <ele>1297.2288</ele>
        <time>2012-05-01T06:28:22Z</time>
      </trkpt>
      <trkpt lat="45.294910" lon="14.205120">
        <ele>1296.3144</ele>
        <time>2012-05-01T06:28:37Z</time>
      </trkpt>
      <trkpt lat="45.294880" lon="14.205190">
        <ele>1309.7256</ele>
        <time>2012-05-01T06:28:45Z</time>
      </trkpt>
      <trkpt lat="45.294920" lon="14.205250">
        <ele>1310.9448</ele>
        <time>2012-05-01T06:28:48Z</time>
      </trkpt>
      <trkpt lat="45.294960" lon="14.205320">
        <ele>1316.736</ele>
        <time>2012-05-01T06:28:53Z</time>
      </trkpt>
      <trkpt lat="45.295000" lon="14.205300">
        <ele>1317.6504</ele>
        <time>2012-05-01T06:28:58Z</time>
      </trkpt>
      <trkpt lat="45.295050" lon="14.205280">
        <ele>1317.6504</ele>
        <time>2012-05-01T06:29:01Z</time>
      </trkpt>
      <trkpt lat="45.295110" lon="14.205350">
        <ele>1321.6128</ele>
        <time>2012-05-01T06:29:05Z</time>
      </trkpt>
      <trkpt lat="45.295080" lon="14.205410">
        <ele>1321.308</ele>
        <time>2012-05-01T06:29:08Z</time>
      </trkpt>
      <trkpt lat="45.295070" lon="14.205520">
        <ele>1324.0512</ele>
        <time>2012-05-01T06:29:12Z</time>
      </trkpt>
      <trkpt lat="45.295020" lon="14.205580">
        <ele>1330.1472</ele>
        <time>2012-05-01T06:29:23Z</time>
      </trkpt>
      <trkpt lat="45.295020" lon="14.205670">
        <ele>1325.88</ele>
        <time>2012-05-01T06:29:28Z</time>
      </trkpt>
      <trkpt lat="45.294990" lon="14.205720">
        <ele>1326.1848</ele>
        <time>2012-05-01T06:29:33Z</time>
      </trkpt>
      <trkpt lat="45.295020" lon="14.205800">
        <ele>1321.9176</ele>
        <time>2012-05-01T06:29:36Z</time>
      </trkpt>
      <trkpt lat="45.295020" lon="14.205880">
        <ele>1321.308</ele>
        <time>2012-05-01T06:29:40Z</time>
      </trkpt>
      <trkpt lat="45.295110" lon="14.205940">
        <ele>1313.688</ele>
        <time>2012-05-01T06:29:43Z</time>
      </trkpt>
      <trkpt lat="45.295160" lon="14.205990">
        <ele>1315.5168</ele>
        <time>2012-05-01T06:29:50Z</time>
      </trkpt>
      <trkpt lat="45.295190" lon="14.206020">
        <ele>1313.688</ele>
        <time>2012-05-01T06:29:58Z</time>
      </trkpt>
      <trkpt lat="45.295270" lon="14.206060">
        <ele>1313.688</ele>
        <time>2012-05-01T06:30:02Z</time>
      </trkpt>
      <trkpt lat="45.295310" lon="14.206120">
        <ele>1314.6024</ele>
        <time>2012-05-01T06:30:03Z</time>
      </trkpt>
      <trkpt lat="45.295330" lon="14.206190">
        <ele>1314.6024</ele>
        <time>2012-05-01T06:30:07Z</time>
      </trkpt>
      <trkpt lat="45.295380" lon="14.206200">
        <ele>1313.0784</ele>
        <time>2012-05-01T06:30:10Z</time>
      </trkpt>
      <trkpt lat="45.295440" lon="14.206210">
        <ele>1313.3832</ele>
        <time>2012-05-01T06:30:14Z</time>
      </trkpt>
      <trkpt lat="45.295480" lon="14.206160">
        <ele>1312.4688</ele>
        <time>2012-05-01T06:30:17Z</time>
      </trkpt>
      <trkpt lat="45.295530" lon="14.206200">
        <ele>1311.2496</ele>
        <time>2012-05-01T06:30:21Z</time>
      </trkpt>
      <trkpt lat="45.295600" lon="14.206200">
        <ele>1316.1264</ele>
        <time>2012-05-01T06:30:26Z</time>
      </trkpt>
      <trkpt lat="45.295660" lon="14.206100">
        <ele>1313.0784</ele>
        <time>2012-05-01T06:30:34Z</time>
      </trkpt>
      <trkpt lat="45.295700" lon="14.206050">
        <ele>1314.9072</ele>
        <time>2012-05-01T06:30:40Z</time>
      </trkpt>
      <trkpt lat="45.295730" lon="14.206000">
        <ele>1317.0408</ele>
        <time>2012-05-01T06:30:44Z</time>
      </trkpt>
      <trkpt lat="45.295780" lon="14.205930">
        <ele>1320.6984</ele>
        <time>2012-05-01T06:30:49Z</time>
      </trkpt>
      <trkpt lat="45.295820" lon="14.205880">
        <ele>1321.0032</ele>
        <time>2012-05-01T06:30:50Z</time>
      </trkpt>
      <trkpt lat="45.295840" lon="14.205810">
        <ele>1321.0032</ele>
        <time>2012-05-01T06:30:53Z</time>
      </trkpt>
      <trkpt lat="45.295880" lon="14.205770">
        <ele>1316.736</ele>
        <time>2012-05-01T06:30:56Z</time>
      </trkpt>
      <trkpt lat="45.295920" lon="14.205730">
        <ele>1314.9072</ele>
        <time>2012-05-01T06:30:57Z</time>
      </trkpt>
      <trkpt lat="45.295950" lon="14.205680">
        <ele>1313.688</ele>
        <time>2012-05-01T06:31:01Z</time>
      </trkpt>
      <trkpt lat="45.295990" lon="14.205630">
        <ele>1311.5544</ele>
        <time>2012-05-01T06:31:04Z</time>
      </trkpt>
      <trkpt lat="45.296020" lon="14.205570">
        <ele>1313.0784</ele>
        <time>2012-05-01T06:31:08Z</time>
      </trkpt>
      <trkpt lat="45.296060" lon="14.205550">
        <ele>1313.0784</ele>
        <time>2012-05-01T06:31:09Z</time>
      </trkpt>
      <trkpt lat="45.296110" lon="14.205580">
        <ele>1315.5168</ele>
        <time>2012-05-01T06:31:16Z</time>
      </trkpt>
      <trkpt lat="45.296140" lon="14.205640">
        <ele>1318.26</ele>
        <time>2012-05-01T06:31:21Z</time>
      </trkpt>
      <trkpt lat="45.296180" lon="14.205630">
        <ele>1317.3456</ele>
        <time>2012-05-01T06:31:26Z</time>
      </trkpt>
      <trkpt lat="45.296220" lon="14.205620">
        <ele>1317.3456</ele>
        <time>2012-05-01T06:31:28Z</time>
      </trkpt>
      <trkpt lat="45.296260" lon="14.205670">
        <ele>1313.688</ele>
        <time>2012-05-01T06:31:35Z</time>
      </trkpt>
      <trkpt lat="45.296310" lon="14.205660">
        <ele>1313.688</ele>
        <time>2012-05-01T06:31:39Z</time>
      </trkpt>
      <trkpt lat="45.296350" lon="14.205700">
        <ele>1313.0784</ele>
        <time>2012-05-01T06:31:44Z</time>
      </trkpt>
      <trkpt lat="45.296410" lon="14.205700">
        <ele>1312.4688</ele>
        <time>2012-05-01T06:31:47Z</time>
      </trkpt>
      <trkpt lat="45.296460" lon="14.205710">
        <ele>1310.64</ele>
        <time>2012-05-01T06:31:51Z</time>
      </trkpt>
      <trkpt lat="45.296480" lon="14.205770">
        <ele>1310.3352</ele>
        <time>2012-05-01T06:31:54Z</time>
      </trkpt>
      <trkpt lat="45.296530" lon="14.205790">
        <ele>1310.64</ele>
        <time>2012-05-01T06:31:58Z</time>
      </trkpt>
      <trkpt lat="45.296580" lon="14.205820">
        <ele>1310.3352</ele>
        <time>2012-05-01T06:32:02Z</time>
      </trkpt>
      <trkpt lat="45.296630" lon="14.205870">
        <ele>1308.2016</ele>
        <time>2012-05-01T06:32:02Z</time>
      </trkpt>
      <trkpt lat="45.296680" lon="14.205870">
        <ele>1305.7632</ele>
        <time>2012-05-01T06:32:05Z</time>
      </trkpt>
      <trkpt lat="45.296740" lon="14.205880">
        <ele>1304.8488</ele>
        <time>2012-05-01T06:32:15Z</time>
      </trkpt>
      <trkpt lat="45.296790" lon="14.205880">
        <ele>1306.6776</ele>
        <time>2012-05-01T06:32:21Z</time>
      </trkpt>
      <trkpt lat="45.296850" lon="14.205920">
        <ele>1305.7632</ele>
        <time>2012-05-01T06:32:25Z</time>
      </trkpt>
      <trkpt lat="45.296910" lon="14.205940">
        <ele>1301.496</ele>
        <time>2012-05-01T06:32:29Z</time>
      </trkpt>
      <trkpt lat="45.296950" lon="14.206000">
        <ele>1302.1056</ele>
        <time>2012-05-01T06:32:32Z</time>
      </trkpt>
      <trkpt lat="45.296990" lon="14.206050">
        <ele>1302.7152</ele>
        <time>2012-05-01T06:32:37Z</time>
      </trkpt>
      <trkpt lat="45.297040" lon="14.206110">
        <ele>1301.1912</ele>
        <time>2012-05-01T06:32:44Z</time>
      </trkpt>
      <trkpt lat="45.297080" lon="14.206130">
        <ele>1296.0096</ele>
        <time>2012-05-01T06:32:45Z</time>
      </trkpt>
      <trkpt lat="45.297150" lon="14.206180">
        <ele>1293.5712</ele>
        <time>2012-05-01T06:32:48Z</time>
      </trkpt>
      <trkpt lat="45.297190" lon="14.206190">
        <ele>1296.0096</ele>
        <time>2012-05-01T06:32:52Z</time>
      </trkpt>
      <trkpt lat="45.297240" lon="14.206230">
        <ele>1296.924</ele>
        <time>2012-05-01T06:33:00Z</time>
      </trkpt>
      <trkpt lat="45.297310" lon="14.206260">
        <ele>1302.1056</ele>
        <time>2012-05-01T06:33:04Z</time>
      </trkpt>
      <trkpt lat="45.297330" lon="14.206310">
        <ele>1302.7152</ele>
        <time>2012-05-01T06:33:14Z</time>
      </trkpt>
      <trkpt lat="45.297380" lon="14.206340">
        <ele>1302.4104</ele>
        <time>2012-05-01T06:33:16Z</time>
      </trkpt>
      <trkpt lat="45.297410" lon="14.206400">
        <ele>1306.3728</ele>
        <time>2012-05-01T06:33:19Z</time>
      </trkpt>
      <trkpt lat="45.297490" lon="14.206440">
        <ele>1305.7632</ele>
        <time>2012-05-01T06:33:23Z</time>
      </trkpt>
      <trkpt lat="45.297530" lon="14.206510">
        <ele>1304.8488</ele>
        <time>2012-05-01T06:33:27Z</time>
      </trkpt>
      <trkpt lat="45.297560" lon="14.206580">
        <ele>1303.3248</ele>
        <time>2012-05-01T06:33:34Z</time>
      </trkpt>
      <trkpt lat="45.297600" lon="14.206630">
        <ele>1303.6296</ele>
        <time>2012-05-01T06:33:39Z</time>
      </trkpt>
      <trkpt lat="45.297640" lon="14.206680">
        <ele>1303.9344</ele>
        <time>2012-05-01T06:33:43Z</time>
      </trkpt>
      <trkpt lat="45.297650" lon="14.206760">
        <ele>1306.6776</ele>
        <time>2012-05-01T06:33:47Z</time>
      </trkpt>
      <trkpt lat="45.297670" lon="14.206820">
        <ele>1309.7256</ele>
        <time>2012-05-01T06:33:51Z</time>
      </trkpt>
      <trkpt lat="45.297670" lon="14.206920">
        <ele>1312.4688</ele>
        <time>2012-05-01T06:33:58Z</time>
      </trkpt>
      <trkpt lat="45.297710" lon="14.206990">
        <ele>1309.7256</ele>
        <time>2012-05-01T06:34:02Z</time>
      </trkpt>
      <trkpt lat="45.297770" lon="14.206990">
        <ele>1307.8968</ele>
        <time>2012-05-01T06:34:03Z</time>
      </trkpt>
      <trkpt lat="45.297810" lon="14.207030">
        <ele>1309.4208</ele>
        <time>2012-05-01T06:34:06Z</time>
      </trkpt>
      <trkpt lat="45.297890" lon="14.207020">
        <ele>1303.3248</ele>
        <time>2012-05-01T06:34:09Z</time>
      </trkpt>
      <trkpt lat="45.297940" lon="14.206970">
        <ele>1297.5336</ele>
        <time>2012-05-01T06:34:12Z</time>
      </trkpt>
      <trkpt lat="45.297980" lon="14.207030">
        <ele>1296.924</ele>
        <time>2012-05-01T06:34:14Z</time>
      </trkpt>
      <trkpt lat="45.298010" lon="14.207080">
        <ele>1296.924</ele>
        <time>2012-05-01T06:34:17Z</time>
      </trkpt>
      <trkpt lat="45.298050" lon="14.207120">
        <ele>1298.1432</ele>
        <time>2012-05-01T06:34:29Z</time>
      </trkpt>
      <trkpt lat="45.298100" lon="14.207150">
        <ele>1295.7048</ele>
        <time>2012-05-01T06:34:39Z</time>
      </trkpt>
      <trkpt lat="45.298130" lon="14.207200">
        <ele>1297.2288</ele>
        <time>2012-05-01T06:34:41Z</time>
      </trkpt>
      <trkpt lat="45.298180" lon="14.207200">
        <ele>1297.5336</ele>
        <time>2012-05-01T06:34:43Z</time>
      </trkpt>
      <trkpt lat="45.298220" lon="14.207270">
        <ele>1299.3624</ele>
        <time>2012-05-01T06:34:44Z</time>
      </trkpt>
      <trkpt lat="45.298280" lon="14.207280">
        <ele>1298.7528</ele>
        <time>2012-05-01T06:34:48Z</time>
      </trkpt>
      <trkpt lat="45.298350" lon="14.207280">
        <ele>1293.2664</ele>
        <time>2012-05-01T06:34:51Z</time>
      </trkpt>
      <trkpt lat="45.298400" lon="14.207300">
        <ele>1293.5712</ele>
        <time>2012-05-01T06:34:53Z</time>
      </trkpt>
      <trkpt lat="45.298450" lon="14.207320">
        <ele>1292.0472</ele>
        <time>2012-05-01T06:34:56Z</time>
      </trkpt>
      <trkpt lat="45.298520" lon="14.207370">
        <ele>1290.2184</ele>
        <time>2012-05-01T06:34:59Z</time>
      </trkpt>
      <trkpt lat="45.298580" lon="14.207380">
        <ele>1289.304</ele>
        <time>2012-05-01T06:35:02Z</time>
      </trkpt>
      <trkpt lat="45.298640" lon="14.207400">
        <ele>1289.9136</ele>
        <time>2012-05-01T06:35:07Z</time>
      </trkpt>
      <trkpt lat="45.298650" lon="14.207490">
        <ele>1290.2184</ele>
        <time>2012-05-01T06:35:12Z</time>
      </trkpt>
      <trkpt lat="45.298690" lon="14.207590">
        <ele>1287.1704</ele>
        <time>2012-05-01T06:35:18Z</time>
      </trkpt>
      <trkpt lat="45.298720" lon="14.207530">
        <ele>1283.208</ele>
        <time>2012-05-01T06:35:20Z</time>
      </trkpt>
      <trkpt lat="45.298770" lon="14.207540">
        <ele>1284.1224</ele>
        <time>2012-05-01T06:35:23Z</time>
      </trkpt>
      <trkpt lat="45.298870" lon="14.207500">
        <ele>1279.2456</ele>
        <time>2012-05-01T06:35:26Z</time>
      </trkpt>
      <trkpt lat="45.298910" lon="14.207550">
        <ele>1275.8928</ele>
        <time>2012-05-01T06:35:34Z</time>
      </trkpt>
      <trkpt lat="45.298930" lon="14.207620">
        <ele>1276.8072</ele>
        <time>2012-05-01T06:35:35Z</time>
      </trkpt>
      <trkpt lat="45.298970" lon="14.207590">
        <ele>1271.9304</ele>
        <time>2012-05-01T06:35:42Z</time>
      </trkpt>
      <trkpt lat="45.299000" lon="14.207640">
        <ele>1288.6944</ele>
        <time>2012-05-01T06:35:51Z</time>
      </trkpt>
      <trkpt lat="45.299060" lon="14.207660">
        <ele>1285.9512</ele>
        <time>2012-05-01T06:35:54Z</time>
      </trkpt>
      <trkpt lat="45.299110" lon="14.207710">
        <ele>1286.5608</ele>
        <time>2012-05-01T06:35:58Z</time>
      </trkpt>
      <trkpt lat="45.299190" lon="14.207720">
        <ele>1282.2936</ele>
        <time>2012-05-01T06:36:01Z</time>
      </trkpt>
      <trkpt lat="45.299250" lon="14.207720">
        <ele>1277.4168</ele>
        <time>2012-05-01T06:36:02Z</time>
      </trkpt>
      <trkpt lat="45.299310" lon="14.207700">
        <ele>1273.1496</ele>
        <time>2012-05-01T06:36:06Z</time>
      </trkpt>
      <trkpt lat="45.299360" lon="14.207680">
        <ele>1271.6256</ele>
        <time>2012-05-01T06:36:12Z</time>
      </trkpt>
      <trkpt lat="45.299380" lon="14.207580">
        <ele>1270.4064</ele>
        <time>2012-05-01T06:36:16Z</time>
      </trkpt>
      <trkpt lat="45.299400" lon="14.207490">
        <ele>1269.492</ele>
        <time>2012-05-01T06:36:17Z</time>
      </trkpt>
      <trkpt lat="45.299470" lon="14.207480">
        <ele>1263.0912</ele>
        <time>2012-05-01T06:36:20Z</time>
      </trkpt>
      <trkpt lat="45.299520" lon="14.207500">
        <ele>1260.9576</ele>
        <time>2012-05-01T06:36:23Z</time>
      </trkpt>
      <trkpt lat="45.299580" lon="14.207520">
        <ele>1256.6904</ele>
        <time>2012-05-01T06:36:28Z</time>
      </trkpt>
      <trkpt lat="45.299590" lon="14.207590">
        <ele>1259.7384</ele>
        <time>2012-05-01T06:36:31Z</time>
      </trkpt>
      <trkpt lat="45.299610" lon="14.207660">
        <ele>1263.7008</ele>
        <time>2012-05-01T06:36:44Z</time>
      </trkpt>
      <trkpt lat="45.299650" lon="14.207680">
        <ele>1264.0056</ele>
        <time>2012-05-01T06:36:48Z</time>
      </trkpt>
      <trkpt lat="45.299670" lon="14.207740">
        <ele>1262.7864</ele>
        <time>2012-05-01T06:36:52Z</time>
      </trkpt>
      <trkpt lat="45.299720" lon="14.207790">
        <ele>1260.0432</ele>
        <time>2012-05-01T06:36:56Z</time>
      </trkpt>
      <trkpt lat="45.299720" lon="14.207850">
        <ele>1262.1768</ele>
        <time>2012-05-01T06:36:59Z</time>
      </trkpt>
      <trkpt lat="45.299730" lon="14.207910">
        <ele>1264.92</ele>
        <time>2012-05-01T06:37:02Z</time>
      </trkpt>
      <trkpt lat="45.299790" lon="14.207900">
        <ele>1264.92</ele>
        <time>2012-05-01T06:37:04Z</time>
      </trkpt>
      <trkpt lat="45.299840" lon="14.207900">
        <ele>1266.7488</ele>
        <time>2012-05-01T06:37:08Z</time>
      </trkpt>
      <trkpt lat="45.299890" lon="14.207920">
        <ele>1269.1872</ele>
        <time>2012-05-01T06:37:11Z</time>
      </trkpt>
      <trkpt lat="45.299950" lon="14.207920">
        <ele>1265.8344</ele>
        <time>2012-05-01T06:37:15Z</time>
      </trkpt>
      <trkpt lat="45.300020" lon="14.207830">
        <ele>1261.872</ele>
        <time>2012-05-01T06:37:19Z</time>
      </trkpt>
      <trkpt lat="45.300040" lon="14.207880">
        <ele>1252.4232</ele>
        <time>2012-05-01T06:37:26Z</time>
      </trkpt>
      <trkpt lat="45.300010" lon="14.207950">
        <ele>1251.8136</ele>
        <time>2012-05-01T06:37:35Z</time>
      </trkpt>
      <trkpt lat="45.299970" lon="14.207990">
        <ele>1250.2896</ele>
        <time>2012-05-01T06:37:41Z</time>
      </trkpt>
      <trkpt lat="45.299920" lon="14.208050">
        <ele>1247.8512</ele>
        <time>2012-05-01T06:37:45Z</time>
      </trkpt>
      <trkpt lat="45.299920" lon="14.208120">
        <ele>1244.4984</ele>
        <time>2012-05-01T06:37:49Z</time>
      </trkpt>
      <trkpt lat="45.299970" lon="14.208100">
        <ele>1236.8784</ele>
        <time>2012-05-01T06:37:58Z</time>
      </trkpt>
      <trkpt lat="45.300000" lon="14.208140">
        <ele>1235.6592</ele>
        <time>2012-05-01T06:38:01Z</time>
      </trkpt>
      <trkpt lat="45.300000" lon="14.208230">
        <ele>1240.8408</ele>
        <time>2012-05-01T06:38:05Z</time>
      </trkpt>
      <trkpt lat="45.300020" lon="14.208160">
        <ele>1236.8784</ele>
        <time>2012-05-01T06:38:06Z</time>
      </trkpt>
      <trkpt lat="45.300060" lon="14.208230">
        <ele>1236.2688</ele>
        <time>2012-05-01T06:38:11Z</time>
      </trkpt>
      <trkpt lat="45.300100" lon="14.208180">
        <ele>1232.916</ele>
        <time>2012-05-01T06:38:13Z</time>
      </trkpt>
      <trkpt lat="45.300130" lon="14.208240">
        <ele>1236.8784</ele>
        <time>2012-05-01T06:38:16Z</time>
      </trkpt>
      <trkpt lat="45.300180" lon="14.208220">
        <ele>1235.964</ele>
        <time>2012-05-01T06:38:20Z</time>
      </trkpt>
      <trkpt lat="45.300210" lon="14.208280">
        <ele>1231.392</ele>
        <time>2012-05-01T06:38:32Z</time>
      </trkpt>
      <trkpt lat="45.300170" lon="14.208370">
        <ele>1233.5256</ele>
        <time>2012-05-01T06:38:36Z</time>
      </trkpt>
      <trkpt lat="45.300140" lon="14.208440">
        <ele>1233.2208</ele>
        <time>2012-05-01T06:38:42Z</time>
      </trkpt>
      <trkpt lat="45.300180" lon="14.208470">
        <ele>1227.7344</ele>
        <time>2012-05-01T06:38:48Z</time>
      </trkpt>
      <trkpt lat="45.300220" lon="14.208540">
        <ele>1227.1248</ele>
        <time>2012-05-01T06:38:51Z</time>
      </trkpt>
      <trkpt lat="45.300240" lon="14.208600">
        <ele>1228.0392</ele>
        <time>2012-05-01T06:38:52Z</time>
      </trkpt>
      <trkpt lat="45.300300" lon="14.208570">
        <ele>1222.8576</ele>
        <time>2012-05-01T06:39:03Z</time>
      </trkpt>
      <trkpt lat="45.300340" lon="14.208600">
        <ele>1221.0288</ele>
        <time>2012-05-01T06:39:07Z</time>
      </trkpt>
      <trkpt lat="45.300390" lon="14.208620">
        <ele>1211.8848</ele>
        <time>2012-05-01T06:39:15Z</time>
      </trkpt>
      <trkpt lat="45.300370" lon="14.208680">
        <ele>1211.8848</ele>
        <time>2012-05-01T06:39:18Z</time>
      </trkpt>
      <trkpt lat="45.300420" lon="14.208680">
        <ele>1212.1896</ele>
        <time>2012-05-01T06:39:19Z</time>
      </trkpt>
      <trkpt lat="45.300470" lon="14.208670">
        <ele>1212.4944</ele>
        <time>2012-05-01T06:39:23Z</time>
      </trkpt>
      <trkpt lat="45.300520" lon="14.208630">
        <ele>1204.5696</ele>
        <time>2012-05-01T06:39:29Z</time>
      </trkpt>
      <trkpt lat="45.300570" lon="14.208650">
        <ele>1205.1792</ele>
        <time>2012-05-01T06:39:38Z</time>
      </trkpt>
      <trkpt lat="45.300620" lon="14.208690">
        <ele>1192.9872</ele>
        <time>2012-05-01T06:39:45Z</time>
      </trkpt>
      <trkpt lat="45.300590" lon="14.208760">
        <ele>1201.5216</ele>
        <time>2012-05-01T06:39:53Z</time>
      </trkpt>
      <trkpt lat="45.300570" lon="14.208820">
        <ele>1200.6072</ele>
        <time>2012-05-01T06:39:57Z</time>
      </trkpt>
      <trkpt lat="45.300610" lon="14.208910">
        <ele>1199.0832</ele>
        <time>2012-05-01T06:40:01Z</time>
      </trkpt>
      <trkpt lat="45.300650" lon="14.208940">
        <ele>1197.864</ele>
        <time>2012-05-01T06:40:03Z</time>
      </trkpt>
      <trkpt lat="45.300670" lon="14.209050">
        <ele>1196.9496</ele>
        <time>2012-05-01T06:40:04Z</time>
      </trkpt>
      <trkpt lat="45.300720" lon="14.209060">
        <ele>1191.768</ele>
        <time>2012-05-01T06:40:07Z</time>
      </trkpt>
      <trkpt lat="45.300760" lon="14.209100">
        <ele>1189.0248</ele>
        <time>2012-05-01T06:40:20Z</time>
      </trkpt>
      <trkpt lat="45.300800" lon="14.209160">
        <ele>1189.6344</ele>
        <time>2012-05-01T06:40:21Z</time>
      </trkpt>
      <trkpt lat="45.300830" lon="14.209230">
        <ele>1189.0248</ele>
        <time>2012-05-01T06:40:27Z</time>
      </trkpt>
      <trkpt lat="45.300830" lon="14.209300">
        <ele>1191.1584</ele>
        <time>2012-05-01T06:40:30Z</time>
      </trkpt>
      <trkpt lat="45.300860" lon="14.209370">
        <ele>1187.5008</ele>
        <time>2012-05-01T06:40:34Z</time>
      </trkpt>
      <trkpt lat="45.300880" lon="14.209440">
        <ele>1184.148</ele>
        <time>2012-05-01T06:40:36Z</time>
      </trkpt>
      <trkpt lat="45.300910" lon="14.209480">
        <ele>1180.7952</ele>
        <time>2012-05-01T06:40:39Z</time>
      </trkpt>
      <trkpt lat="45.300990" lon="14.209550">
        <ele>1181.4048</ele>
        <time>2012-05-01T06:40:44Z</time>
      </trkpt>
      <trkpt lat="45.301040" lon="14.209570">
        <ele>1182.3192</ele>
        <time>2012-05-01T06:40:47Z</time>
      </trkpt>
      <trkpt lat="45.301050" lon="14.209640">
        <ele>1184.4528</ele>
        <time>2012-05-01T06:40:51Z</time>
      </trkpt>
      <trkpt lat="45.301080" lon="14.209690">
        <ele>1183.5384</ele>
        <time>2012-05-01T06:40:53Z</time>
      </trkpt>
      <trkpt lat="45.301100" lon="14.209750">
        <ele>1182.0144</ele>
        <time>2012-05-01T06:40:54Z</time>
      </trkpt>
      <trkpt lat="45.301150" lon="14.209800">
        <ele>1175.9184</ele>
        <time>2012-05-01T06:40:57Z</time>
      </trkpt>
      <trkpt lat="45.301220" lon="14.209820">
        <ele>1175.004</ele>
        <time>2012-05-01T06:41:02Z</time>
      </trkpt>
      <trkpt lat="45.301270" lon="14.209850">
        <ele>1173.1752</ele>
        <time>2012-05-01T06:41:02Z</time>
      </trkpt>
      <trkpt lat="45.301310" lon="14.209830">
        <ele>1171.956</ele>
        <time>2012-05-01T06:41:06Z</time>
      </trkpt>
      <trkpt lat="45.301360" lon="14.209790">
        <ele>1169.2128</ele>
        <time>2012-05-01T06:41:13Z</time>
      </trkpt>
      <trkpt lat="45.301370" lon="14.209860">
        <ele>1175.004</ele>
        <time>2012-05-01T06:41:22Z</time>
      </trkpt>
      <trkpt lat="45.301360" lon="14.209800">
        <ele>1172.2608</ele>
        <time>2012-05-01T06:41:24Z</time>
      </trkpt>
      <trkpt lat="45.301410" lon="14.209820">
        <ele>1168.6032</ele>
        <time>2012-05-01T06:41:29Z</time>
      </trkpt>
      <trkpt lat="45.301440" lon="14.209900">
        <ele>1166.4696</ele>
        <time>2012-05-01T06:41:33Z</time>
      </trkpt>
      <trkpt lat="45.301440" lon="14.209990">
        <ele>1160.9832</ele>
        <time>2012-05-01T06:41:42Z</time>
      </trkpt>
      <trkpt lat="45.301470" lon="14.210060">
        <ele>1157.9352</ele>
        <time>2012-05-01T06:41:45Z</time>
      </trkpt>
      <trkpt lat="45.301480" lon="14.210130">
        <ele>1160.9832</ele>
        <time>2012-05-01T06:41:49Z</time>
      </trkpt>
      <trkpt lat="45.301510" lon="14.210200">
        <ele>1161.288</ele>
        <time>2012-05-01T06:41:53Z</time>
      </trkpt>
      <trkpt lat="45.301550" lon="14.210230">
        <ele>1160.3736</ele>
        <time>2012-05-01T06:41:56Z</time>
      </trkpt>
      <trkpt lat="45.301540" lon="14.210290">
        <ele>1166.4696</ele>
        <time>2012-05-01T06:41:59Z</time>
      </trkpt>
      <trkpt lat="45.301550" lon="14.210370">
        <ele>1168.6032</ele>
        <time>2012-05-01T06:42:03Z</time>
      </trkpt>
      <trkpt lat="45.301600" lon="14.210360">
        <ele>1168.908</ele>
        <time>2012-05-01T06:42:05Z</time>
      </trkpt>
      <trkpt lat="45.301650" lon="14.210380">
        <ele>1171.6512</ele>
        <time>2012-05-01T06:42:11Z</time>
      </trkpt>
      <trkpt lat="45.301670" lon="14.210470">
        <ele>1171.6512</ele>
        <time>2012-05-01T06:42:14Z</time>
      </trkpt>
      <trkpt lat="45.301710" lon="14.210420">
        <ele>1173.48</ele>
        <time>2012-05-01T06:42:19Z</time>
      </trkpt>
      <trkpt lat="45.301760" lon="14.210400">
        <ele>1174.0896</ele>
        <time>2012-05-01T06:42:24Z</time>
      </trkpt>
      <trkpt lat="45.301810" lon="14.210400">
        <ele>1168.6032</ele>
        <time>2012-05-01T06:42:27Z</time>
      </trkpt>
      <trkpt lat="45.301880" lon="14.210410">
        <ele>1165.2504</ele>
        <time>2012-05-01T06:42:27Z</time>
      </trkpt>
      <trkpt lat="45.301900" lon="14.210470">
        <ele>1163.1168</ele>
        <time>2012-05-01T06:42:38Z</time>
      </trkpt>
      <trkpt lat="45.301930" lon="14.210540">
        <ele>1161.288</ele>
        <time>2012-05-01T06:42:39Z</time>
      </trkpt>
      <trkpt lat="45.301880" lon="14.210580">
        <ele>1165.5552</ele>
        <time>2012-05-01T06:42:41Z</time>
      </trkpt>
      <trkpt lat="45.301910" lon="14.210620">
        <ele>1161.5928</ele>
        <time>2012-05-01T06:42:46Z</time>
      </trkpt>
      <trkpt lat="45.301910" lon="14.210710">
        <ele>1160.3736</ele>
        <time>2012-05-01T06:42:53Z</time>
      </trkpt>
      <trkpt lat="45.301940" lon="14.210840">
        <ele>1158.24</ele>
        <time>2012-05-01T06:42:54Z</time>
      </trkpt>
      <trkpt lat="45.301980" lon="14.210860">
        <ele>1158.8496</ele>
        <time>2012-05-01T06:42:57Z</time>
      </trkpt>
      <trkpt lat="45.302040" lon="14.210940">
        <ele>1158.8496</ele>
        <time>2012-05-01T06:43:01Z</time>
      </trkpt>
      <trkpt lat="45.302070" lon="14.211000">
        <ele>1157.9352</ele>
        <time>2012-05-01T06:43:06Z</time>
      </trkpt>
      <trkpt lat="45.302110" lon="14.211030">
        <ele>1156.716</ele>
        <time>2012-05-01T06:43:09Z</time>
      </trkpt>
      <trkpt lat="45.302150" lon="14.211080">
        <ele>1152.4488</ele>
        <time>2012-05-01T06:43:12Z</time>
      </trkpt>
      <trkpt lat="45.302150" lon="14.211140">
        <ele>1150.9248</ele>
        <time>2012-05-01T06:43:17Z</time>
      </trkpt>
      <trkpt lat="45.302200" lon="14.211200">
        <ele>1151.5344</ele>
        <time>2012-05-01T06:43:20Z</time>
      </trkpt>
      <trkpt lat="45.302240" lon="14.211240">
        <ele>1151.2296</ele>
        <time>2012-05-01T06:43:21Z</time>
      </trkpt>
      <trkpt lat="45.302280" lon="14.211270">
        <ele>1150.0104</ele>
        <time>2012-05-01T06:43:25Z</time>
      </trkpt>
      <trkpt lat="45.302320" lon="14.211320">
        <ele>1149.7056</ele>
        <time>2012-05-01T06:43:26Z</time>
      </trkpt>
      <trkpt lat="45.302350" lon="14.211370">
        <ele>1146.9624</ele>
        <time>2012-05-01T06:43:30Z</time>
      </trkpt>
      <trkpt lat="45.302360" lon="14.211440">
        <ele>1149.4008</ele>
        <time>2012-05-01T06:43:36Z</time>
      </trkpt>
      <trkpt lat="45.302400" lon="14.211510">
        <ele>1149.7056</ele>
        <time>2012-05-01T06:43:40Z</time>
      </trkpt>
      <trkpt lat="45.302460" lon="14.211560">
        <ele>1146.048</ele>
        <time>2012-05-01T06:43:43Z</time>
      </trkpt>
      <trkpt lat="45.302520" lon="14.211570">
        <ele>1144.524</ele>
        <time>2012-05-01T06:43:45Z</time>
      </trkpt>
      <trkpt lat="45.302560" lon="14.211590">
        <ele>1143.9144</ele>
        <time>2012-05-01T06:43:52Z</time>
      </trkpt>
      <trkpt lat="45.302600" lon="14.211650">
        <ele>1143.3048</ele>
        <time>2012-05-01T06:43:55Z</time>
      </trkpt>
      <trkpt lat="45.302650" lon="14.211680">
        <ele>1141.7808</ele>
        <time>2012-05-01T06:43:57Z</time>
      </trkpt>
      <trkpt lat="45.302700" lon="14.211750">
        <ele>1142.0856</ele>
        <time>2012-05-01T06:44:08Z</time>
      </trkpt>
      <trkpt lat="45.302740" lon="14.211770">
        <ele>1144.524</ele>
        <time>2012-05-01T06:44:12Z</time>
      </trkpt>
      <trkpt lat="45.302790" lon="14.211800">
        <ele>1145.1336</ele>
        <time>2012-05-01T06:44:15Z</time>
      </trkpt>
      <trkpt lat="45.302840" lon="14.211830">
        <ele>1140.8664</ele>
        <time>2012-05-01T06:44:19Z</time>
      </trkpt>
      <trkpt lat="45.302880" lon="14.211890">
        <ele>1137.8184</ele>
        <time>2012-05-01T06:44:23Z</time>
      </trkpt>
      <trkpt lat="45.302930" lon="14.211940">
        <ele>1137.5136</ele>
        <time>2012-05-01T06:44:29Z</time>
      </trkpt>
      <trkpt lat="45.302950" lon="14.211990">
        <ele>1136.2944</ele>
        <time>2012-05-01T06:44:33Z</time>
      </trkpt>
      <trkpt lat="45.303000" lon="14.212030">
        <ele>1136.5992</ele>
        <time>2012-05-01T06:44:38Z</time>
      </trkpt>
      <trkpt lat="45.303040" lon="14.212070">
        <ele>1135.0752</ele>
        <time>2012-05-01T06:44:41Z</time>
      </trkpt>
      <trkpt lat="45.303090" lon="14.212120">
        <ele>1127.1504</ele>
        <time>2012-05-01T06:44:50Z</time>
      </trkpt>
      <trkpt lat="45.303130" lon="14.212160">
        <ele>1127.76</ele>
        <time>2012-05-01T06:44:54Z</time>
      </trkpt>
      <trkpt lat="45.303180" lon="14.212210">
        <ele>1121.0544</ele>
        <time>2012-05-01T06:45:01Z</time>
      </trkpt>
      <trkpt lat="45.303190" lon="14.212290">
        <ele>1121.0544</ele>
        <time>2012-05-01T06:45:06Z</time>
      </trkpt>
      <trkpt lat="45.303210" lon="14.212360">
        <ele>1122.2736</ele>
        <time>2012-05-01T06:45:12Z</time>
      </trkpt>
      <trkpt lat="45.303260" lon="14.212380">
        <ele>1121.0544</ele>
        <time>2012-05-01T06:45:18Z</time>
      </trkpt>
      <trkpt lat="45.303310" lon="14.212420">
        <ele>1120.7496</ele>
        <time>2012-05-01T06:45:23Z</time>
      </trkpt>
      <trkpt lat="45.303330" lon="14.212500">
        <ele>1121.664</ele>
        <time>2012-05-01T06:45:25Z</time>
      </trkpt>
      <trkpt lat="45.303370" lon="14.212460">
        <ele>1117.7016</ele>
        <time>2012-05-01T06:45:31Z</time>
      </trkpt>
      <trkpt lat="45.303420" lon="14.212470">
        <ele>1114.9584</ele>
        <time>2012-05-01T06:45:33Z</time>
      </trkpt>
      <trkpt lat="45.303470" lon="14.212500">
        <ele>1111.9104</ele>
        <time>2012-05-01T06:45:39Z</time>
      </trkpt>
      <trkpt lat="45.303510" lon="14.212470">
        <ele>1109.1672</ele>
        <time>2012-05-01T06:45:43Z</time>
      </trkpt>
      <trkpt lat="45.303550" lon="14.212450">
        <ele>1107.0336</ele>
        <time>2012-05-01T06:45:44Z</time>
      </trkpt>
      <trkpt lat="45.303550" lon="14.212520">
        <ele>1108.8624</ele>
        <time>2012-05-01T06:45:48Z</time>
      </trkpt>
      <trkpt lat="45.303520" lon="14.212580">
        <ele>1107.948</ele>
        <time>2012-05-01T06:45:52Z</time>
      </trkpt>
      <trkpt lat="45.303490" lon="14.212630">
        <ele>1106.7288</ele>
        <time>2012-05-01T06:45:55Z</time>
      </trkpt>
      <trkpt lat="45.303490" lon="14.212560">
        <ele>1107.3384</ele>
        <time>2012-05-01T06:45:59Z</time>
      </trkpt>
      <trkpt lat="45.303440" lon="14.212580">
        <ele>1108.2528</ele>
        <time>2012-05-01T06:46:10Z</time>
      </trkpt>
      <trkpt lat="45.303410" lon="14.212630">
        <ele>1107.0336</ele>
        <time>2012-05-01T06:46:12Z</time>
      </trkpt>
      <trkpt lat="45.303340" lon="14.212690">
        <ele>1102.4616</ele>
        <time>2012-05-01T06:46:15Z</time>
      </trkpt>
      <trkpt lat="45.303300" lon="14.212760">
        <ele>1101.852</ele>
        <time>2012-05-01T06:46:19Z</time>
      </trkpt>
      <trkpt lat="45.303330" lon="14.212830">
        <ele>1100.6328</ele>
        <time>2012-05-01T06:46:27Z</time>
      </trkpt>
      <trkpt lat="45.303360" lon="14.212900">
        <ele>1101.2424</ele>
        <time>2012-05-01T06:46:31Z</time>
      </trkpt>
      <trkpt lat="45.303410" lon="14.212940">
        <ele>1101.852</ele>
        <time>2012-05-01T06:46:41Z</time>
      </trkpt>
      <trkpt lat="45.303440" lon="14.212980">
        <ele>1099.1088</ele>
        <time>2012-05-01T06:46:44Z</time>
      </trkpt>
      <trkpt lat="45.303460" lon="14.213040">
        <ele>1098.804</ele>
        <time>2012-05-01T06:46:53Z</time>
      </trkpt>
      <trkpt lat="45.303500" lon="14.213070">
        <ele>1095.756</ele>
        <time>2012-05-01T06:47:01Z</time>
      </trkpt>
      <trkpt lat="45.303540" lon="14.213110">
        <ele>1095.1464</ele>
        <time>2012-05-01T06:47:02Z</time>
      </trkpt>
      <trkpt lat="45.303590" lon="14.213150">
        <ele>1092.4032</ele>
        <time>2012-05-01T06:47:06Z</time>
      </trkpt>
      <trkpt lat="45.303630" lon="14.213210">
        <ele>1091.4888</ele>
        <time>2012-05-01T06:47:11Z</time>
      </trkpt>
      <trkpt lat="45.303670" lon="14.213250">
        <ele>1087.5264</ele>
        <time>2012-05-01T06:47:13Z</time>
      </trkpt>
      <trkpt lat="45.303720" lon="14.213280">
        <ele>1084.4784</ele>
        <time>2012-05-01T06:47:17Z</time>
      </trkpt>
      <trkpt lat="45.303780" lon="14.213270">
        <ele>1081.7352</ele>
        <time>2012-05-01T06:47:20Z</time>
      </trkpt>
      <trkpt lat="45.303830" lon="14.213260">
        <ele>1080.8208</ele>
        <time>2012-05-01T06:47:24Z</time>
      </trkpt>
      <trkpt lat="45.303870" lon="14.213310">
        <ele>1083.2592</ele>
        <time>2012-05-01T06:47:31Z</time>
      </trkpt>
      <trkpt lat="45.303920" lon="14.213350">
        <ele>1086.0024</ele>
        <time>2012-05-01T06:47:36Z</time>
      </trkpt>
      <trkpt lat="45.303920" lon="14.213430">
        <ele>1088.4408</ele>
        <time>2012-05-01T06:47:43Z</time>
      </trkpt>
      <trkpt lat="45.303960" lon="14.213470">
        <ele>1091.7936</ele>
        <time>2012-05-01T06:47:47Z</time>
      </trkpt>
      <trkpt lat="45.304020" lon="14.213460">
        <ele>1091.7936</ele>
        <time>2012-05-01T06:47:51Z</time>
      </trkpt>
      <trkpt lat="45.304050" lon="14.213520">
        <ele>1092.0984</ele>
        <time>2012-05-01T06:48:05Z</time>
      </trkpt>
      <trkpt lat="45.304090" lon="14.213570">
        <ele>1095.1464</ele>
        <time>2012-05-01T06:48:09Z</time>
      </trkpt>
      <trkpt lat="45.304160" lon="14.213570">
        <ele>1093.9272</ele>
        <time>2012-05-01T06:48:11Z</time>
      </trkpt>
      <trkpt lat="45.304210" lon="14.213600">
        <ele>1091.4888</ele>
        <time>2012-05-01T06:48:15Z</time>
      </trkpt>
      <trkpt lat="45.304270" lon="14.213620">
        <ele>1091.7936</ele>
        <time>2012-05-01T06:48:18Z</time>
      </trkpt>
      <trkpt lat="45.304330" lon="14.213640">
        <ele>1089.66</ele>
        <time>2012-05-01T06:48:22Z</time>
      </trkpt>
      <trkpt lat="45.304380" lon="14.213650">
        <ele>1086.3072</ele>
        <time>2012-05-01T06:48:25Z</time>
      </trkpt>
      <trkpt lat="45.304440" lon="14.213660">
        <ele>1081.1256</ele>
        <time>2012-05-01T06:48:29Z</time>
      </trkpt>
      <trkpt lat="45.304490" lon="14.213680">
        <ele>1076.2488</ele>
        <time>2012-05-01T06:48:32Z</time>
      </trkpt>
      <trkpt lat="45.304560" lon="14.213680">
        <ele>1075.0296</ele>
        <time>2012-05-01T06:48:34Z</time>
      </trkpt>
      <trkpt lat="45.304530" lon="14.213760">
        <ele>1075.0296</ele>
        <time>2012-05-01T06:48:36Z</time>
      </trkpt>
      <trkpt lat="45.304550" lon="14.213820">
        <ele>1074.42</ele>
        <time>2012-05-01T06:48:38Z</time>
      </trkpt>
      <trkpt lat="45.304600" lon="14.213830">
        <ele>1077.1632</ele>
        <time>2012-05-01T06:48:41Z</time>
      </trkpt>
      <trkpt lat="45.304650" lon="14.213800">
        <ele>1077.468</ele>
        <time>2012-05-01T06:48:48Z</time>
      </trkpt>
      <trkpt lat="45.304700" lon="14.213830">
        <ele>1077.468</ele>
        <time>2012-05-01T06:48:52Z</time>
      </trkpt>
      <trkpt lat="45.304760" lon="14.213840">
        <ele>1076.2488</ele>
        <time>2012-05-01T06:48:57Z</time>
      </trkpt>
      <trkpt lat="45.304800" lon="14.213860">
        <ele>1075.6392</ele>
        <time>2012-05-01T06:49:01Z</time>
      </trkpt>
      <trkpt lat="45.304840" lon="14.213930">
        <ele>1080.516</ele>
        <time>2012-05-01T06:49:05Z</time>
      </trkpt>
      <trkpt lat="45.304870" lon="14.214010">
        <ele>1077.468</ele>
        <time>2012-05-01T06:49:09Z</time>
      </trkpt>
      <trkpt lat="45.304910" lon="14.214080">
        <ele>1072.2864</ele>
        <time>2012-05-01T06:49:15Z</time>
      </trkpt>
      <trkpt lat="45.304950" lon="14.214150">
        <ele>1070.4576</ele>
        <time>2012-05-01T06:49:16Z</time>
      </trkpt>
      <trkpt lat="45.304980" lon="14.214100">
        <ele>1071.9816</ele>
        <time>2012-05-01T06:49:16Z</time>
      </trkpt>
      <trkpt lat="45.305030" lon="14.214070">
        <ele>1068.324</ele>
        <time>2012-05-01T06:49:19Z</time>
      </trkpt>
      <trkpt lat="45.305090" lon="14.214040">
        <ele>1066.8</ele>
        <time>2012-05-01T06:49:20Z</time>
      </trkpt>
      <trkpt lat="45.305140" lon="14.214040">
        <ele>1068.324</ele>
        <time>2012-05-01T06:49:24Z</time>
      </trkpt>
      <trkpt lat="45.305180" lon="14.214020">
        <ele>1067.1048</ele>
        <time>2012-05-01T06:49:27Z</time>
      </trkpt>
      <trkpt lat="45.305230" lon="14.214010">
        <ele>1065.276</ele>
        <time>2012-05-01T06:49:28Z</time>
      </trkpt>
      <trkpt lat="45.305300" lon="14.213980">
        <ele>1064.6664</ele>
        <time>2012-05-01T06:49:31Z</time>
      </trkpt>
      <trkpt lat="45.305350" lon="14.213980">
        <ele>1066.1904</ele>
        <time>2012-05-01T06:49:35Z</time>
      </trkpt>
      <trkpt lat="45.305400" lon="14.213990">
        <ele>1072.5912</ele>
        <time>2012-05-01T06:49:40Z</time>
      </trkpt>
      <trkpt lat="45.305420" lon="14.213930">
        <ele>1069.2384</ele>
        <time>2012-05-01T06:49:46Z</time>
      </trkpt>
      <trkpt lat="45.305470" lon="14.213910">
        <ele>1068.0192</ele>
        <time>2012-05-01T06:49:47Z</time>
      </trkpt>
      <trkpt lat="45.305480" lon="14.214010">
        <ele>1065.5808</ele>
        <time>2012-05-01T06:49:51Z</time>
      </trkpt>
      <trkpt lat="45.305520" lon="14.213960">
        <ele>1063.4472</ele>
        <time>2012-05-01T06:49:54Z</time>
      </trkpt>
      <trkpt lat="45.305570" lon="14.213980">
        <ele>1062.5328</ele>
        <time>2012-05-01T06:49:57Z</time>
      </trkpt>
      <trkpt lat="45.305620" lon="14.213980">
        <ele>1061.6184</ele>
        <time>2012-05-01T06:49:58Z</time>
      </trkpt>
      <trkpt lat="45.305660" lon="14.213970">
        <ele>1059.18</ele>
        <time>2012-05-01T06:50:02Z</time>
      </trkpt>
      <trkpt lat="45.305690" lon="14.213900">
        <ele>1060.0944</ele>
        <time>2012-05-01T06:50:11Z</time>
      </trkpt>
      <trkpt lat="45.305710" lon="14.213970">
        <ele>1059.4848</ele>
        <time>2012-05-01T06:50:13Z</time>
      </trkpt>
      <trkpt lat="45.305720" lon="14.214040">
        <ele>1057.9608</ele>
        <time>2012-05-01T06:50:18Z</time>
      </trkpt>
      <trkpt lat="45.305770" lon="14.214130">
        <ele>1057.3512</ele>
        <time>2012-05-01T06:50:21Z</time>
      </trkpt>
      <trkpt lat="45.305800" lon="14.214180">
        <ele>1055.2176</ele>
        <time>2012-05-01T06:50:22Z</time>
      </trkpt>
      <trkpt lat="45.305840" lon="14.214090">
        <ele>1050.036</ele>
        <time>2012-05-01T06:50:28Z</time>
      </trkpt>
      <trkpt lat="45.305850" lon="14.214020">
        <ele>1039.9776</ele>
        <time>2012-05-01T06:50:38Z</time>
      </trkpt>
      <trkpt lat="45.305830" lon="14.214090">
        <ele>1039.6728</ele>
        <time>2012-05-01T06:50:45Z</time>
      </trkpt>
      <trkpt lat="45.305790" lon="14.214170">
        <ele>1041.5016</ele>
        <time>2012-05-01T06:50:53Z</time>
      </trkpt>
      <trkpt lat="45.305830" lon="14.214220">
        <ele>1040.2824</ele>
        <time>2012-05-01T06:50:56Z</time>
      </trkpt>
      <trkpt lat="45.305890" lon="14.214270">
        <ele>1039.6728</ele>
        <time>2012-05-01T06:50:59Z</time>
      </trkpt>
      <trkpt lat="45.305920" lon="14.214320">
        <ele>1039.0632</ele>
        <time>2012-05-01T06:51:03Z</time>
      </trkpt>
      <trkpt lat="45.305920" lon="14.214400">
        <ele>1038.4536</ele>
        <time>2012-05-01T06:51:07Z</time>
      </trkpt>
      <trkpt lat="45.305960" lon="14.214470">
        <ele>1040.2824</ele>
        <time>2012-05-01T06:51:14Z</time>
      </trkpt>
      <trkpt lat="45.306010" lon="14.214490">
        <ele>1044.5496</ele>
        <time>2012-05-01T06:51:16Z</time>
      </trkpt>
      <trkpt lat="45.306060" lon="14.214480">
        <ele>1039.368</ele>
        <time>2012-05-01T06:51:26Z</time>
      </trkpt>
      <trkpt lat="45.306100" lon="14.214520">
        <ele>1039.368</ele>
        <time>2012-05-01T06:51:28Z</time>
      </trkpt>
      <trkpt lat="45.306140" lon="14.214500">
        <ele>1043.6352</ele>
        <time>2012-05-01T06:51:43Z</time>
      </trkpt>
      <trkpt lat="45.306180" lon="14.214530">
        <ele>1038.7584</ele>
        <time>2012-05-01T06:51:54Z</time>
      </trkpt>
      <trkpt lat="45.306230" lon="14.214550">
        <ele>1033.272</ele>
        <time>2012-05-01T06:51:57Z</time>
      </trkpt>
      <trkpt lat="45.306240" lon="14.214640">
        <ele>1037.2344</ele>
        <time>2012-05-01T06:52:02Z</time>
      </trkpt>
      <trkpt lat="45.306260" lon="14.214710">
        <ele>1037.2344</ele>
        <time>2012-05-01T06:52:10Z</time>
      </trkpt>
      <trkpt lat="45.306310" lon="14.214760">
        <ele>1034.1864</ele>
        <time>2012-05-01T06:52:16Z</time>
      </trkpt>
      <trkpt lat="45.306340" lon="14.214810">
        <ele>1034.1864</ele>
        <time>2012-05-01T06:52:20Z</time>
      </trkpt>
      <trkpt lat="45.306370" lon="14.214860">
        <ele>1032.6624</ele>
        <time>2012-05-01T06:52:28Z</time>
      </trkpt>
      <trkpt lat="45.306450" lon="14.214860">
        <ele>1028.3952</ele>
        <time>2012-05-01T06:52:29Z</time>
      </trkpt>
      <trkpt lat="45.306490" lon="14.214840">
        <ele>1025.0424</ele>
        <time>2012-05-01T06:52:30Z</time>
      </trkpt>
      <trkpt lat="45.306550" lon="14.214820">
        <ele>1018.3368</ele>
        <time>2012-05-01T06:52:33Z</time>
      </trkpt>
      <trkpt lat="45.306610" lon="14.214780">
        <ele>1011.3264</ele>
        <time>2012-05-01T06:52:37Z</time>
      </trkpt>
      <trkpt lat="45.306660" lon="14.214770">
        <ele>1009.4976</ele>
        <time>2012-05-01T06:52:40Z</time>
      </trkpt>
      <trkpt lat="45.306700" lon="14.214720">
        <ele>1008.888</ele>
        <time>2012-05-01T06:52:44Z</time>
      </trkpt>
      <trkpt lat="45.306750" lon="14.214740">
        <ele>1007.6688</ele>
        <time>2012-05-01T06:52:51Z</time>
      </trkpt>
      <trkpt lat="45.306800" lon="14.214730">
        <ele>1018.3368</ele>
        <time>2012-05-01T06:53:00Z</time>
      </trkpt>
      <trkpt lat="45.306840" lon="14.214700">
        <ele>1019.556</ele>
        <time>2012-05-01T06:53:06Z</time>
      </trkpt>
      <trkpt lat="45.306880" lon="14.214710">
        <ele>1022.604</ele>
        <time>2012-05-01T06:53:08Z</time>
      </trkpt>
      <trkpt lat="45.306930" lon="14.214690">
        <ele>1026.2616</ele>
        <time>2012-05-01T06:53:15Z</time>
      </trkpt>
      <trkpt lat="45.306980" lon="14.214660">
        <ele>1027.7856</ele>
        <time>2012-05-01T06:53:18Z</time>
      </trkpt>
      <trkpt lat="45.307020" lon="14.214680">
        <ele>1028.3952</ele>
        <time>2012-05-01T06:53:20Z</time>
      </trkpt>
      <trkpt lat="45.307070" lon="14.214660">
        <ele>1028.3952</ele>
        <time>2012-05-01T06:53:27Z</time>
      </trkpt>
      <trkpt lat="45.307120" lon="14.214670">
        <ele>1022.604</ele>
        <time>2012-05-01T06:53:34Z</time>
      </trkpt>
      <trkpt lat="45.307160" lon="14.214700">
        <ele>1021.3848</ele>
        <time>2012-05-01T06:53:37Z</time>
      </trkpt>
      <trkpt lat="45.307210" lon="14.214700">
        <ele>1019.2512</ele>
        <time>2012-05-01T06:53:42Z</time>
      </trkpt>
      <trkpt lat="45.307270" lon="14.214730">
        <ele>1021.3848</ele>
        <time>2012-05-01T06:53:49Z</time>
      </trkpt>
      <trkpt lat="45.307300" lon="14.214790">
        <ele>1018.9464</ele>
        <time>2012-05-01T06:53:53Z</time>
      </trkpt>
      <trkpt lat="45.307370" lon="14.214810">
        <ele>1015.5936</ele>
        <time>2012-05-01T06:53:54Z</time>
      </trkpt>
      <trkpt lat="45.307410" lon="14.214820">
        <ele>1010.412</ele>
        <time>2012-05-01T06:54:01Z</time>
      </trkpt>
      <trkpt lat="45.307460" lon="14.214820">
        <ele>1007.6688</ele>
        <time>2012-05-01T06:54:02Z</time>
      </trkpt>
      <trkpt lat="45.307500" lon="14.214800">
        <ele>1006.1448</ele>
        <time>2012-05-01T06:54:05Z</time>
      </trkpt>
      <trkpt lat="45.307560" lon="14.214760">
        <ele>1006.7544</ele>
        <time>2012-05-01T06:54:09Z</time>
      </trkpt>
      <trkpt lat="45.307610" lon="14.214800">
        <ele>1007.6688</ele>
        <time>2012-05-01T06:54:13Z</time>
      </trkpt>
      <trkpt lat="45.307660" lon="14.214780">
        <ele>1003.4016</ele>
        <time>2012-05-01T06:54:28Z</time>
      </trkpt>
      <trkpt lat="45.307700" lon="14.214800">
        <ele>996.696</ele>
        <time>2012-05-01T06:54:32Z</time>
      </trkpt>
      <trkpt lat="45.307720" lon="14.214850">
        <ele>998.22</ele>
        <time>2012-05-01T06:54:39Z</time>
      </trkpt>
      <trkpt lat="45.307700" lon="14.214920">
        <ele>999.744</ele>
        <time>2012-05-01T06:54:40Z</time>
      </trkpt>
      <trkpt lat="45.307690" lon="14.215000">
        <ele>1004.6208</ele>
        <time>2012-05-01T06:54:44Z</time>
      </trkpt>
      <trkpt lat="45.307740" lon="14.215000">
        <ele>1007.6688</ele>
        <time>2012-05-01T06:54:48Z</time>
      </trkpt>
      <trkpt lat="45.307790" lon="14.215020">
        <ele>1007.364</ele>
        <time>2012-05-01T06:54:51Z</time>
      </trkpt>
      <trkpt lat="45.307820" lon="14.215070">
        <ele>1011.3264</ele>
        <time>2012-05-01T06:54:55Z</time>
      </trkpt>
      <trkpt lat="45.307870" lon="14.215100">
        <ele>1011.936</ele>
        <time>2012-05-01T06:54:59Z</time>
      </trkpt>
      <trkpt lat="45.307980" lon="14.215040">
        <ele>1006.1448</ele>
        <time>2012-05-01T06:55:03Z</time>
      </trkpt>
      <trkpt lat="45.307970" lon="14.215100">
        <ele>996.696</ele>
        <time>2012-05-01T06:55:17Z</time>
      </trkpt>
      <trkpt lat="45.307940" lon="14.215170">
        <ele>994.5624</ele>
        <time>2012-05-01T06:55:23Z</time>
      </trkpt>
      <trkpt lat="45.307960" lon="14.215230">
        <ele>990.9048</ele>
        <time>2012-05-01T06:55:26Z</time>
      </trkpt>
      <trkpt lat="45.308000" lon="14.215310">
        <ele>985.7232</ele>
        <time>2012-05-01T06:55:29Z</time>
      </trkpt>
      <trkpt lat="45.308020" lon="14.215380">
        <ele>982.6752</ele>
        <time>2012-05-01T06:55:30Z</time>
      </trkpt>
      <trkpt lat="45.308020" lon="14.215460">
        <ele>979.0176</ele>
        <time>2012-05-01T06:55:34Z</time>
      </trkpt>
      <trkpt lat="45.308060" lon="14.215560">
        <ele>973.2264</ele>
        <time>2012-05-01T06:55:39Z</time>
      </trkpt>
      <trkpt lat="45.308050" lon="14.215630">
        <ele>970.788</ele>
        <time>2012-05-01T06:55:42Z</time>
      </trkpt>
      <trkpt lat="45.308080" lon="14.215690">
        <ele>966.216</ele>
        <time>2012-05-01T06:55:52Z</time>
      </trkpt>
      <trkpt lat="45.308130" lon="14.215700">
        <ele>965.9112</ele>
        <time>2012-05-01T06:55:57Z</time>
      </trkpt>
      <trkpt lat="45.308190" lon="14.215710">
        <ele>967.1304</ele>
        <time>2012-05-01T06:56:01Z</time>
      </trkpt>
      <trkpt lat="45.308240" lon="14.215690">
        <ele>968.3496</ele>
        <time>2012-05-01T06:56:06Z</time>
      </trkpt>
      <trkpt lat="45.308290" lon="14.215660">
        <ele>969.5688</ele>
        <time>2012-05-01T06:56:12Z</time>
      </trkpt>
      <trkpt lat="45.308340" lon="14.215630">
        <ele>968.6544</ele>
        <time>2012-05-01T06:56:16Z</time>
      </trkpt>
      <trkpt lat="45.308380" lon="14.215610">
        <ele>970.4832</ele>
        <time>2012-05-01T06:56:20Z</time>
      </trkpt>
      <trkpt lat="45.308440" lon="14.215590">
        <ele>971.0928</ele>
        <time>2012-05-01T06:56:25Z</time>
      </trkpt>
      <trkpt lat="45.308480" lon="14.215560">
        <ele>968.9592</ele>
        <time>2012-05-01T06:56:28Z</time>
      </trkpt>
      <trkpt lat="45.308520" lon="14.215580">
        <ele>973.5312</ele>
        <time>2012-05-01T06:56:36Z</time>
      </trkpt>
      <trkpt lat="45.308570" lon="14.215550">
        <ele>975.36</ele>
        <time>2012-05-01T06:56:39Z</time>
      </trkpt>
      <trkpt lat="45.308620" lon="14.215540">
        <ele>970.788</ele>
        <time>2012-05-01T06:56:44Z</time>
      </trkpt>
      <trkpt lat="45.308650" lon="14.215490">
        <ele>980.5416</ele>
        <time>2012-05-01T06:56:54Z</time>
      </trkpt>
      <trkpt lat="45.308710" lon="14.215390">
        <ele>982.0656</ele>
        <time>2012-05-01T06:57:00Z</time>
      </trkpt>
      <trkpt lat="45.308720" lon="14.215330">
        <ele>982.98</ele>
        <time>2012-05-01T06:57:03Z</time>
      </trkpt>
      <trkpt lat="45.308760" lon="14.215250">
        <ele>982.6752</ele>
        <time>2012-05-01T06:57:06Z</time>
      </trkpt>
      <trkpt lat="45.308770" lon="14.215180">
        <ele>982.98</ele>
        <time>2012-05-01T06:57:07Z</time>
      </trkpt>
      <trkpt lat="45.308820" lon="14.215180">
        <ele>980.8464</ele>
        <time>2012-05-01T06:57:10Z</time>
      </trkpt>
      <trkpt lat="45.308820" lon="14.215110">
        <ele>981.7608</ele>
        <time>2012-05-01T06:57:11Z</time>
      </trkpt>
    </trkseg>
  </trk>
</gpx>
